Wetterdaten: Sonntag, 28.12.2014
Datum Zeit Temp. Aussen +5cm Feuchte Auss Luftdruck Regen Sonnenschein Regendauer Solar Windben
28.12.2014 00:00 -0,8 C -2,2 C 81 % 1007,0 hPa 0,0 l/m 0 min 0 min 0 W/m 31,4 km/h (5 Bft)
28.12.2014 00:02 -0,8 C -2,2 C 81 % 1007,1 hPa 0,0 l/m 0 min 0 min 0 W/m 31,4 km/h (5 Bft)
28.12.2014 00:05 -0,9 C -2,2 C 81 % 1007,2 hPa 0,0 l/m 0 min 0 min 0 W/m 37,7 km/h (5 Bft)
28.12.2014 00:06 -0,9 C -2,2 C 81 % 1007,1 hPa 0,0 l/m 0 min 0 min 0 W/m 37,7 km/h (5 Bft)
28.12.2014 00:08 -0,9 C -2,2 C 81 % 1007,1 hPa 0,0 l/m 0 min 0 min 0 W/m 33,5 km/h (5 Bft)
28.12.2014 00:10 -1,0 C -2,2 C 81 % 1007,1 hPa 0,0 l/m 0 min 0 min 0 W/m 33,5 km/h (5 Bft)
28.12.2014 00:12 -1,0 C -2,2 C 82 % 1007,2 hPa 0,0 l/m 0 min 0 min 0 W/m 37,7 km/h (5 Bft)
28.12.2014 00:14 -1,0 C -2,2 C 82 % 1007,3 hPa 0,0 l/m 0 min 0 min 0 W/m 37,7 km/h (5 Bft)
28.12.2014 00:16 -1,1 C -2,2 C 82 % 1007,3 hPa 0,0 l/m 0 min 0 min 0 W/m 35,6 km/h (5 Bft)
28.12.2014 00:18 -1,1 C -2,2 C 82 % 1007,5 hPa 0,0 l/m 0 min 0 min 0 W/m 23,0 km/h (4 Bft)
28.12.2014 00:20 -1,1 C -2,2 C 82 % 1007,6 hPa 0,0 l/m 0 min 0 min 0 W/m 50,2 km/h (7 Bft)
28.12.2014 00:22 -1,1 C -2,2 C 82 % 1007,5 hPa 0,0 l/m 0 min 0 min 0 W/m 50,2 km/h (7 Bft)
28.12.2014 00:24 -1,2 C -2,2 C 82 % 1007,6 hPa 0,0 l/m 0 min 0 min 0 W/m 35,6 km/h (5 Bft)
28.12.2014 00:26 -1,2 C -2,2 C 82 % 1007,6 hPa 0,0 l/m 0 min 0 min 0 W/m 31,4 km/h (5 Bft)
28.12.2014 00:28 -1,2 C -2,2 C 82 % 1007,7 hPa 0,0 l/m 0 min 0 min 0 W/m 29,3 km/h (5 Bft)
28.12.2014 00:30 -1,2 C -2,2 C 82 % 1007,8 hPa 0,0 l/m 0 min 0 min 0 W/m 39,7 km/h (6 Bft)
28.12.2014 00:32 -1,3 C -2,2 C 82 % 1007,9 hPa 0,0 l/m 0 min 0 min 0 W/m 35,6 km/h (5 Bft)
28.12.2014 00:34 -1,3 C -2,8 C 82 % 1007,9 hPa 0,0 l/m 0 min 0 min 0 W/m 25,1 km/h (4 Bft)
28.12.2014 00:36 -1,3 C -2,8 C 82 % 1008,0 hPa 0,0 l/m 0 min 0 min 0 W/m 31,4 km/h (5 Bft)
28.12.2014 00:38 -1,3 C -2,8 C 82 % 1008,0 hPa 0,0 l/m 0 min 0 min 0 W/m 27,2 km/h (4 Bft)
28.12.2014 00:40 -1,4 C -2,8 C 82 % 1008,0 hPa 0,0 l/m 0 min 0 min 0 W/m 37,7 km/h (5 Bft)
28.12.2014 00:42 -1,4 C -2,8 C 82 % 1008,1 hPa 0,0 l/m 0 min 0 min 0 W/m 31,4 km/h (5 Bft)
28.12.2014 00:44 -1,4 C -2,8 C 83 % 1008,2 hPa 0,0 l/m 0 min 0 min 0 W/m 29,3 km/h (5 Bft)
28.12.2014 00:46 -1,4 C -2,8 C 83 % 1008,1 hPa 0,0 l/m 0 min 0 min 0 W/m 29,3 km/h (5 Bft)
28.12.2014 00:48 -1,5 C -2,8 C 83 % 1008,2 hPa 0,0 l/m 0 min 0 min 0 W/m 33,5 km/h (5 Bft)
28.12.2014 00:50 -1,5 C -2,8 C 83 % 1008,2 hPa 0,0 l/m 0 min 0 min 0 W/m 33,5 km/h (5 Bft)
28.12.2014 00:52 -1,5 C -2,8 C 83 % 1008,2 hPa 0,0 l/m 0 min 0 min 0 W/m 31,4 km/h (5 Bft)
28.12.2014 00:54 -1,6 C -2,8 C 83 % 1008,2 hPa 0,0 l/m 0 min 0 min 0 W/m 43,9 km/h (6 Bft)
28.12.2014 00:56 -1,6 C -2,8 C 83 % 1008,3 hPa 0,0 l/m 0 min 0 min 0 W/m 39,7 km/h (6 Bft)
28.12.2014 00:58 -1,6 C -2,8 C 83 % 1008,3 hPa 0,0 l/m 0 min 0 min 0 W/m 27,2 km/h (4 Bft)
28.12.2014 01:00 -1,6 C -2,8 C 83 % 1008,4 hPa 0,0 l/m 0 min 0 min 0 W/m 29,3 km/h (5 Bft)
28.12.2014 01:02 -1,6 C -2,8 C 83 % 1008,4 hPa 0,0 l/m 0 min 0 min 0 W/m 33,5 km/h (5 Bft)
28.12.2014 01:04 -1,7 C -2,8 C 83 % 1008,4 hPa 0,0 l/m 0 min 0 min 0 W/m 37,7 km/h (5 Bft)
28.12.2014 01:06 -1,7 C -2,8 C 83 % 1008,4 hPa 0,0 l/m 0 min 0 min 0 W/m 27,2 km/h (4 Bft)
28.12.2014 01:08 -1,7 C -2,8 C 83 % 1008,6 hPa 0,0 l/m 0 min 0 min 0 W/m 27,2 km/h (4 Bft)
28.12.2014 01:10 -1,7 C -2,8 C 83 % 1008,5 hPa 0,0 l/m 0 min 0 min 0 W/m 35,6 km/h (5 Bft)
28.12.2014 01:12 -1,7 C -2,8 C 83 % 1008,5 hPa 0,0 l/m 0 min 0 min 0 W/m 23,0 km/h (4 Bft)
28.12.2014 01:14 -1,8 C -2,8 C 82 % 1008,6 hPa 0,0 l/m 0 min 0 min 0 W/m 33,5 km/h (5 Bft)
28.12.2014 01:16 -1,8 C -2,8 C 82 % 1008,6 hPa 0,0 l/m 0 min 0 min 0 W/m 23,0 km/h (4 Bft)
28.12.2014 01:18 -1,8 C -2,8 C 83 % 1008,6 hPa 0,0 l/m 0 min 0 min 0 W/m 29,3 km/h (5 Bft)
28.12.2014 01:20 -1,8 C -2,8 C 83 % 1008,7 hPa 0,0 l/m 0 min 0 min 0 W/m 29,3 km/h (5 Bft)
28.12.2014 01:22 -1,9 C -2,8 C 83 % 1008,7 hPa 0,0 l/m 0 min 0 min 0 W/m 23,0 km/h (4 Bft)
28.12.2014 01:24 -1,9 C -2,8 C 82 % 1008,8 hPa 0,0 l/m 0 min 0 min 0 W/m 27,2 km/h (4 Bft)
28.12.2014 01:26 -1,9 C -2,8 C 82 % 1008,9 hPa 0,0 l/m 0 min 0 min 0 W/m 27,2 km/h (4 Bft)
28.12.2014 01:28 -1,9 C -2,8 C 82 % 1009,0 hPa 0,0 l/m 0 min 0 min 0 W/m 23,0 km/h (4 Bft)
28.12.2014 01:30 -2,0 C -2,8 C 82 % 1009,0 hPa 0,0 l/m 0 min 0 min 0 W/m 33,5 km/h (5 Bft)
28.12.2014 01:32 -2,0 C -2,8 C 82 % 1009,1 hPa 0,0 l/m 0 min 0 min 0 W/m 39,7 km/h (6 Bft)
28.12.2014 01:34 -2,0 C -2,8 C 82 % 1009,1 hPa 0,0 l/m 0 min 0 min 0 W/m 39,7 km/h (6 Bft)
28.12.2014 01:36 -2,1 C -3,3 C 82 % 1009,1 hPa 0,0 l/m 0 min 0 min 0 W/m 31,4 km/h (5 Bft)
28.12.2014 01:38 -2,1 C -3,3 C 82 % 1009,2 hPa 0,0 l/m 0 min 0 min 0 W/m 33,5 km/h (5 Bft)
28.12.2014 01:40 -2,1 C -3,3 C 82 % 1009,1 hPa 0,0 l/m 0 min 0 min 0 W/m 29,3 km/h (5 Bft)
28.12.2014 01:42 -2,1 C -3,3 C 82 % 1009,3 hPa 0,0 l/m 0 min 0 min 0 W/m 50,2 km/h (7 Bft)
28.12.2014 01:44 -2,1 C -3,3 C 82 % 1009,3 hPa 0,0 l/m 0 min 0 min 0 W/m 29,3 km/h (5 Bft)
28.12.2014 01:46 -2,2 C -3,3 C 82 % 1009,3 hPa 0,0 l/m 0 min 0 min 0 W/m 35,6 km/h (5 Bft)
28.12.2014 01:48 -2,2 C -3,3 C 82 % 1009,5 hPa 0,0 l/m 0 min 0 min 0 W/m 39,7 km/h (6 Bft)
28.12.2014 01:50 -2,2 C -3,3 C 82 % 1009,7 hPa 0,0 l/m 0 min 0 min 0 W/m 37,7 km/h (5 Bft)
28.12.2014 01:52 -2,2 C -3,3 C 82 % 1009,6 hPa 0,0 l/m 0 min 0 min 0 W/m 43,9 km/h (6 Bft)
28.12.2014 01:54 -2,2 C -3,3 C 82 % 1009,7 hPa 0,0 l/m 0 min 0 min 0 W/m 31,4 km/h (5 Bft)
28.12.2014 01:56 -2,3 C -3,3 C 82 % 1009,7 hPa 0,0 l/m 0 min 0 min 0 W/m 31,4 km/h (5 Bft)
28.12.2014 01:58 -2,3 C -3,3 C 82 % 1009,9 hPa 0,0 l/m 0 min 0 min 0 W/m 29,3 km/h (5 Bft)
28.12.2014 02:00 -2,3 C -3,3 C 82 % 1009,9 hPa 0,0 l/m 0 min 0 min 0 W/m 37,7 km/h (5 Bft)
28.12.2014 02:02 -2,3 C -3,3 C 82 % 1010,0 hPa 0,0 l/m 0 min 0 min 0 W/m 37,7 km/h (5 Bft)
28.12.2014 02:04 -2,3 C -3,3 C 82 % 1010,1 hPa 0,0 l/m 0 min 0 min 0 W/m 33,5 km/h (5 Bft)
28.12.2014 02:06 -2,3 C -3,3 C 82 % 1010,1 hPa 0,0 l/m 0 min 0 min 0 W/m 23,0 km/h (4 Bft)
28.12.2014 02:08 -2,4 C -3,3 C 82 % 1010,2 hPa 0,0 l/m 0 min 0 min 0 W/m 31,4 km/h (5 Bft)
28.12.2014 02:10 -2,4 C -3,3 C 82 % 1010,2 hPa 0,0 l/m 0 min 0 min 0 W/m 23,0 km/h (4 Bft)
28.12.2014 02:12 -2,4 C -3,3 C 82 % 1010,2 hPa 0,0 l/m 0 min 0 min 0 W/m 33,5 km/h (5 Bft)
28.12.2014 02:14 -2,4 C -3,3 C 82 % 1010,3 hPa 0,0 l/m 0 min 0 min 0 W/m 29,3 km/h (5 Bft)
28.12.2014 02:16 -2,4 C -3,3 C 82 % 1010,3 hPa 0,0 l/m 0 min 0 min 0 W/m 41,8 km/h (6 Bft)
28.12.2014 02:18 -2,4 C -3,3 C 82 % 1010,3 hPa 0,0 l/m 0 min 0 min 0 W/m 29,3 km/h (5 Bft)
28.12.2014 02:20 -2,4 C -3,3 C 82 % 1010,4 hPa 0,0 l/m 0 min 0 min 0 W/m 27,2 km/h (4 Bft)
28.12.2014 02:22 -2,5 C -3,3 C 82 % 1010,4 hPa 0,0 l/m 0 min 0 min 0 W/m 29,3 km/h (5 Bft)
28.12.2014 02:24 -2,5 C -3,3 C 82 % 1010,5 hPa 0,0 l/m 0 min 0 min 0 W/m 33,5 km/h (5 Bft)
28.12.2014 02:26 -2,5 C -3,3 C 82 % 1010,6 hPa 0,0 l/m 0 min 0 min 0 W/m 29,3 km/h (5 Bft)
28.12.2014 02:28 -2,5 C -3,3 C 82 % 1010,7 hPa 0,0 l/m 0 min 0 min 0 W/m 25,1 km/h (4 Bft)
28.12.2014 02:30 -2,5 C -3,3 C 82 % 1010,7 hPa 0,0 l/m 0 min 0 min 0 W/m 25,1 km/h (4 Bft)
28.12.2014 02:32 -2,5 C -3,3 C 82 % 1010,7 hPa 0,0 l/m 0 min 0 min 0 W/m 29,3 km/h (5 Bft)
28.12.2014 02:34 -2,5 C -3,3 C 82 % 1010,8 hPa 0,0 l/m 0 min 0 min 0 W/m 33,5 km/h (5 Bft)
28.12.2014 02:36 -2,5 C -3,3 C 82 % 1010,9 hPa 0,0 l/m 0 min 0 min 0 W/m 29,3 km/h (5 Bft)
28.12.2014 02:38 -2,6 C -3,3 C 83 % 1010,9 hPa 0,0 l/m 0 min 0 min 0 W/m 41,8 km/h (6 Bft)
28.12.2014 02:40 -2,6 C -3,3 C 82 % 1011,0 hPa 0,0 l/m 0 min 0 min 0 W/m 37,7 km/h (5 Bft)
28.12.2014 02:42 -2,6 C -3,3 C 82 % 1011,1 hPa 0,0 l/m 0 min 0 min 0 W/m 29,3 km/h (5 Bft)
28.12.2014 02:44 -2,6 C -3,3 C 82 % 1011,2 hPa 0,0 l/m 0 min 0 min 0 W/m 25,1 km/h (4 Bft)
28.12.2014 02:46 -2,6 C -3,3 C 82 % 1011,3 hPa 0,0 l/m 0 min 0 min 0 W/m 43,9 km/h (6 Bft)
28.12.2014 02:48 -2,6 C -3,3 C 82 % 1011,3 hPa 0,0 l/m 0 min 0 min 0 W/m 29,3 km/h (5 Bft)
28.12.2014 02:50 -2,6 C -3,3 C 82 % 1011,4 hPa 0,0 l/m 0 min 0 min 0 W/m 39,7 km/h (6 Bft)
28.12.2014 02:52 -2,6 C -3,3 C 82 % 1011,4 hPa 0,0 l/m 0 min 0 min 0 W/m 37,7 km/h (5 Bft)
28.12.2014 02:54 -2,6 C -3,3 C 82 % 1011,5 hPa 0,0 l/m 0 min 0 min 0 W/m 31,4 km/h (5 Bft)
28.12.2014 02:56 -2,6 C -3,3 C 82 % 1011,6 hPa 0,0 l/m 0 min 0 min 0 W/m 27,2 km/h (4 Bft)
28.12.2014 02:58 -2,6 C -3,3 C 82 % 1011,5 hPa 0,0 l/m 0 min 0 min 0 W/m 31,4 km/h (5 Bft)
28.12.2014 03:00 -2,6 C -3,3 C 82 % 1011,6 hPa 0,0 l/m 0 min 0 min 0 W/m 20,9 km/h (4 Bft)
28.12.2014 03:02 -2,6 C -3,3 C 82 % 1011,7 hPa 0,0 l/m 0 min 0 min 0 W/m 33,5 km/h (5 Bft)
28.12.2014 03:04 -2,6 C -3,9 C 82 % 1011,8 hPa 0,0 l/m 0 min 0 min 0 W/m 31,4 km/h (5 Bft)
28.12.2014 03:06 -2,6 C -3,9 C 82 % 1011,8 hPa 0,0 l/m 0 min 0 min 0 W/m 39,7 km/h (6 Bft)
28.12.2014 03:08 -2,6 C -3,9 C 83 % 1011,8 hPa 0,0 l/m 0 min 0 min 0 W/m 27,2 km/h (4 Bft)
28.12.2014 03:10 -2,6 C -3,9 C 83 % 1011,9 hPa 0,0 l/m 0 min 0 min 0 W/m 39,7 km/h (6 Bft)
28.12.2014 03:12 -2,6 C -3,9 C 83 % 1011,9 hPa 0,0 l/m 0 min 0 min 0 W/m 31,4 km/h (5 Bft)
28.12.2014 03:14 -2,7 C -3,9 C 83 % 1011,9 hPa 0,0 l/m 0 min 0 min 0 W/m 29,3 km/h (5 Bft)
28.12.2014 03:16 -2,7 C -3,9 C 83 % 1012,0 hPa 0,0 l/m 0 min 0 min 0 W/m 37,7 km/h (5 Bft)
28.12.2014 03:18 -2,7 C -3,9 C 83 % 1012,2 hPa 0,0 l/m 0 min 0 min 0 W/m 29,3 km/h (5 Bft)
28.12.2014 03:20 -2,7 C -3,9 C 83 % 1012,2 hPa 0,0 l/m 0 min 0 min 0 W/m 33,5 km/h (5 Bft)
28.12.2014 03:22 -2,7 C -3,9 C 84 % 1012,3 hPa 0,0 l/m 0 min 0 min 0 W/m 29,3 km/h (5 Bft)
28.12.2014 03:24 -2,7 C -3,9 C 84 % 1012,4 hPa 0,0 l/m 0 min 0 min 0 W/m 31,4 km/h (5 Bft)
28.12.2014 03:26 -2,7 C -3,9 C 84 % 1012,5 hPa 0,0 l/m 0 min 0 min 0 W/m 29,3 km/h (5 Bft)
28.12.2014 03:28 -2,7 C -3,3 C 84 % 1012,5 hPa 0,0 l/m 0 min 0 min 0 W/m 23,0 km/h (4 Bft)
28.12.2014 03:30 -2,7 C -3,3 C 84 % 1012,5 hPa 0,0 l/m 0 min 0 min 0 W/m 27,2 km/h (4 Bft)
28.12.2014 03:32 -2,7 C -3,9 C 84 % 1012,6 hPa 0,0 l/m 0 min 0 min 0 W/m 29,3 km/h (5 Bft)
28.12.2014 03:34 -2,7 C -3,9 C 84 % 1012,8 hPa 0,0 l/m 0 min 0 min 0 W/m 29,3 km/h (5 Bft)
28.12.2014 03:36 -2,7 C -3,3 C 84 % 1012,8 hPa 0,0 l/m 0 min 0 min 0 W/m 39,7 km/h (6 Bft)
28.12.2014 03:38 -2,7 C -3,3 C 84 % 1012,8 hPa 0,0 l/m 0 min 0 min 0 W/m 27,2 km/h (4 Bft)
28.12.2014 03:40 -2,8 C -3,9 C 84 % 1012,8 hPa 0,0 l/m 0 min 0 min 0 W/m 39,7 km/h (6 Bft)
28.12.2014 03:42 -2,8 C -3,9 C 84 % 1012,9 hPa 0,0 l/m 0 min 0 min 0 W/m 27,2 km/h (4 Bft)
28.12.2014 03:44 -2,8 C -3,9 C 84 % 1013,0 hPa 0,0 l/m 0 min 0 min 0 W/m 29,3 km/h (5 Bft)
28.12.2014 03:46 -2,8 C -3,9 C 84 % 1013,0 hPa 0,0 l/m 0 min 0 min 0 W/m 35,6 km/h (5 Bft)
28.12.2014 03:48 -2,8 C -3,9 C 84 % 1013,1 hPa 0,0 l/m 0 min 0 min 0 W/m 29,3 km/h (5 Bft)
28.12.2014 03:50 -2,8 C -3,9 C 84 % 1013,2 hPa 0,0 l/m 0 min 0 min 0 W/m 46,0 km/h (6 Bft)
28.12.2014 03:52 -2,8 C -3,9 C 84 % 1013,2 hPa 0,0 l/m 0 min 0 min 0 W/m 31,4 km/h (5 Bft)
28.12.2014 03:54 -2,8 C -3,9 C 84 % 1013,2 hPa 0,0 l/m 0 min 0 min 0 W/m 37,7 km/h (5 Bft)
28.12.2014 03:56 -2,8 C -3,9 C 83 % 1013,3 hPa 0,0 l/m 0 min 0 min 0 W/m 33,5 km/h (5 Bft)
28.12.2014 03:58 -2,8 C -3,9 C 83 % 1013,3 hPa 0,0 l/m 0 min 0 min 0 W/m 33,5 km/h (5 Bft)
28.12.2014 04:00 -2,8 C -3,9 C 83 % 1013,4 hPa 0,0 l/m 0 min 0 min 0 W/m 23,0 km/h (4 Bft)
28.12.2014 04:02 -2,8 C -3,9 C 83 % 1013,4 hPa 0,0 l/m 0 min 0 min 0 W/m 33,5 km/h (5 Bft)
28.12.2014 04:04 -2,8 C -3,9 C 83 % 1013,4 hPa 0,0 l/m 0 min 0 min 0 W/m 35,6 km/h (5 Bft)
28.12.2014 04:06 -2,9 C -3,9 C 83 % 1013,5 hPa 0,0 l/m 0 min 0 min 0 W/m 43,9 km/h (6 Bft)
28.12.2014 04:08 -2,9 C -3,9 C 83 % 1013,7 hPa 0,0 l/m 0 min 0 min 0 W/m 50,2 km/h (7 Bft)
28.12.2014 04:10 -2,9 C -3,9 C 83 % 1013,6 hPa 0,0 l/m 0 min 0 min 0 W/m 46,0 km/h (6 Bft)
28.12.2014 04:12 -2,9 C -3,9 C 83 % 1013,7 hPa 0,0 l/m 0 min 0 min 0 W/m 33,5 km/h (5 Bft)
28.12.2014 04:14 -2,9 C -3,9 C 83 % 1013,7 hPa 0,0 l/m 0 min 0 min 0 W/m 41,8 km/h (6 Bft)
28.12.2014 04:16 -2,9 C -3,9 C 83 % 1013,7 hPa 0,0 l/m 0 min 0 min 0 W/m 43,9 km/h (6 Bft)
28.12.2014 04:18 -2,9 C -3,9 C 83 % 1013,9 hPa 0,0 l/m 0 min 0 min 0 W/m 39,7 km/h (6 Bft)
28.12.2014 04:20 -2,9 C -3,9 C 83 % 1013,8 hPa 0,0 l/m 0 min 0 min 0 W/m 31,4 km/h (5 Bft)
28.12.2014 04:22 -2,9 C -3,9 C 83 % 1013,9 hPa 0,0 l/m 0 min 0 min 0 W/m 43,9 km/h (6 Bft)
28.12.2014 04:24 -2,9 C -3,9 C 83 % 1013,9 hPa 0,0 l/m 0 min 0 min 0 W/m 29,3 km/h (5 Bft)
28.12.2014 04:26 -2,9 C -3,9 C 83 % 1014,0 hPa 0,0 l/m 0 min 0 min 0 W/m 31,4 km/h (5 Bft)
28.12.2014 04:28 -3,0 C -3,9 C 83 % 1014,1 hPa 0,0 l/m 0 min 0 min 0 W/m 37,7 km/h (5 Bft)
28.12.2014 04:30 -3,0 C -3,9 C 83 % 1014,1 hPa 0,0 l/m 0 min 0 min 0 W/m 27,2 km/h (4 Bft)
28.12.2014 04:32 -3,0 C -3,9 C 83 % 1014,1 hPa 0,0 l/m 0 min 0 min 0 W/m 33,5 km/h (5 Bft)
28.12.2014 04:34 -3,0 C -3,9 C 83 % 1014,3 hPa 0,0 l/m 0 min 0 min 0 W/m 39,7 km/h (6 Bft)
28.12.2014 04:36 -3,1 C -3,9 C 83 % 1014,2 hPa 0,0 l/m 0 min 0 min 0 W/m 37,7 km/h (5 Bft)
28.12.2014 04:38 -3,1 C -3,9 C 83 % 1014,3 hPa 0,0 l/m 0 min 0 min 0 W/m 35,6 km/h (5 Bft)
28.12.2014 04:40 -3,1 C -3,9 C 83 % 1014,3 hPa 0,0 l/m 0 min 0 min 0 W/m 39,7 km/h (6 Bft)
28.12.2014 04:42 -3,1 C -3,9 C 83 % 1014,3 hPa 0,0 l/m 0 min 0 min 0 W/m 33,5 km/h (5 Bft)
28.12.2014 04:44 -3,1 C -3,9 C 82 % 1014,3 hPa 0,0 l/m 0 min 0 min 0 W/m 37,7 km/h (5 Bft)
28.12.2014 04:46 -3,1 C -3,9 C 82 % 1014,4 hPa 0,0 l/m 0 min 0 min 0 W/m 31,4 km/h (5 Bft)
28.12.2014 04:48 -3,2 C -3,9 C 82 % 1014,4 hPa 0,0 l/m 0 min 0 min 0 W/m 31,4 km/h (5 Bft)
28.12.2014 04:50 -3,2 C -3,9 C 82 % 1014,5 hPa 0,0 l/m 0 min 0 min 0 W/m 27,2 km/h (4 Bft)
28.12.2014 04:52 -3,2 C -4,4 C 83 % 1014,6 hPa 0,0 l/m 0 min 0 min 0 W/m 35,6 km/h (5 Bft)
28.12.2014 04:54 -3,2 C -4,4 C 83 % 1014,7 hPa 0,0 l/m 0 min 0 min 0 W/m 35,6 km/h (5 Bft)
28.12.2014 04:56 -3,2 C -4,4 C 83 % 1014,7 hPa 0,0 l/m 0 min 0 min 0 W/m 29,3 km/h (5 Bft)
28.12.2014 04:58 -3,2 C -4,4 C 83 % 1014,7 hPa 0,0 l/m 0 min 0 min 0 W/m 39,7 km/h (6 Bft)
28.12.2014 05:00 -3,3 C -4,4 C 83 % 1014,8 hPa 0,0 l/m 0 min 0 min 0 W/m 37,7 km/h (5 Bft)
28.12.2014 05:02 -3,3 C -4,4 C 83 % 1014,9 hPa 0,0 l/m 0 min 0 min 0 W/m 29,3 km/h (5 Bft)
28.12.2014 05:04 -3,3 C -4,4 C 83 % 1014,8 hPa 0,0 l/m 0 min 0 min 0 W/m 18,8 km/h (3 Bft)
28.12.2014 05:06 -3,3 C -4,4 C 83 % 1015,0 hPa 0,0 l/m 0 min 0 min 0 W/m 35,6 km/h (5 Bft)
28.12.2014 05:08 -3,3 C -4,4 C 83 % 1015,1 hPa 0,0 l/m 0 min 0 min 0 W/m 27,2 km/h (4 Bft)
28.12.2014 05:10 -3,3 C -4,4 C 83 % 1015,1 hPa 0,0 l/m 0 min 0 min 0 W/m 25,1 km/h (4 Bft)
28.12.2014 05:12 -3,3 C -4,4 C 83 % 1015,2 hPa 0,0 l/m 0 min 0 min 0 W/m 27,2 km/h (4 Bft)
28.12.2014 05:14 -3,4 C -4,4 C 83 % 1015,1 hPa 0,0 l/m 0 min 0 min 0 W/m 25,1 km/h (4 Bft)
28.12.2014 05:16 -3,4 C -4,4 C 83 % 1015,2 hPa 0,0 l/m 0 min 0 min 0 W/m 31,4 km/h (5 Bft)
28.12.2014 05:18 -3,4 C -4,4 C 83 % 1015,2 hPa 0,0 l/m 0 min 0 min 0 W/m 27,2 km/h (4 Bft)
28.12.2014 05:20 -3,4 C -4,4 C 83 % 1015,3 hPa 0,0 l/m 0 min 0 min 0 W/m 27,2 km/h (4 Bft)
28.12.2014 05:22 -3,4 C -4,4 C 83 % 1015,3 hPa 0,0 l/m 0 min 0 min 0 W/m 31,4 km/h (5 Bft)
28.12.2014 05:24 -3,4 C -4,4 C 83 % 1015,3 hPa 0,0 l/m 0 min 0 min 0 W/m 25,1 km/h (4 Bft)
28.12.2014 05:26 -3,5 C -4,4 C 83 % 1015,4 hPa 0,0 l/m 0 min 0 min 0 W/m 27,2 km/h (4 Bft)
28.12.2014 05:28 -3,5 C -4,4 C 83 % 1015,4 hPa 0,0 l/m 0 min 0 min 0 W/m 33,5 km/h (5 Bft)
28.12.2014 05:30 -3,5 C -4,4 C 83 % 1015,5 hPa 0,0 l/m 0 min 0 min 0 W/m 31,4 km/h (5 Bft)
28.12.2014 05:32 -3,6 C -4,4 C 83 % 1015,5 hPa 0,0 l/m 0 min 0 min 0 W/m 35,6 km/h (5 Bft)
28.12.2014 05:34 -3,6 C -4,4 C 83 % 1015,6 hPa 0,0 l/m 0 min 0 min 0 W/m 31,4 km/h (5 Bft)
28.12.2014 05:36 -3,6 C -4,4 C 83 % 1015,6 hPa 0,0 l/m 0 min 0 min 0 W/m 41,8 km/h (6 Bft)
28.12.2014 05:38 -3,6 C -4,4 C 83 % 1015,7 hPa 0,0 l/m 0 min 0 min 0 W/m 33,5 km/h (5 Bft)
28.12.2014 05:40 -3,6 C -4,4 C 83 % 1015,7 hPa 0,0 l/m 0 min 0 min 0 W/m 29,3 km/h (5 Bft)
28.12.2014 05:42 -3,6 C -4,4 C 84 % 1015,8 hPa 0,0 l/m 0 min 0 min 0 W/m 33,5 km/h (5 Bft)
28.12.2014 05:44 -3,6 C -4,4 C 84 % 1015,8 hPa 0,0 l/m 0 min 0 min 0 W/m 33,5 km/h (5 Bft)
28.12.2014 05:46 -3,6 C -4,4 C 84 % 1015,9 hPa 0,0 l/m 0 min 0 min 0 W/m 31,4 km/h (5 Bft)
28.12.2014 05:48 -3,6 C -4,4 C 84 % 1016,0 hPa 0,0 l/m 0 min 0 min 0 W/m 27,2 km/h (4 Bft)
28.12.2014 05:50 -3,7 C -4,4 C 84 % 1016,1 hPa 0,0 l/m 0 min 0 min 0 W/m 39,7 km/h (6 Bft)
28.12.2014 05:52 -3,7 C -4,4 C 84 % 1016,1 hPa 0,0 l/m 0 min 0 min 0 W/m 41,8 km/h (6 Bft)
28.12.2014 05:54 -3,7 C -4,4 C 84 % 1016,1 hPa 0,0 l/m 0 min 0 min 0 W/m 37,7 km/h (5 Bft)
28.12.2014 05:56 -3,7 C -4,4 C 84 % 1016,1 hPa 0,0 l/m 0 min 0 min 0 W/m 29,3 km/h (5 Bft)
28.12.2014 05:58 -3,7 C -4,4 C 84 % 1016,2 hPa 0,0 l/m 0 min 0 min 0 W/m 29,3 km/h (5 Bft)
28.12.2014 06:00 -3,7 C -4,4 C 83 % 1016,1 hPa 0,0 l/m 0 min 0 min 0 W/m 37,7 km/h (5 Bft)
28.12.2014 06:02 -3,7 C -4,4 C 83 % 1016,2 hPa 0,0 l/m 0 min 0 min 0 W/m 23,0 km/h (4 Bft)
28.12.2014 06:05 -3,7 C -4,4 C 83 % 1016,3 hPa 0,0 l/m 0 min 0 min 0 W/m 31,4 km/h (5 Bft)
28.12.2014 06:08 -3,7 C -4,4 C 83 % 1016,4 hPa 0,0 l/m 0 min 0 min 0 W/m 31,4 km/h (5 Bft)
28.12.2014 06:10 -3,8 C -4,4 C 83 % 1016,5 hPa 0,0 l/m 0 min 0 min 0 W/m 27,2 km/h (4 Bft)
28.12.2014 06:12 -3,8 C -4,4 C 83 % 1016,6 hPa 0,0 l/m 0 min 0 min 0 W/m 29,3 km/h (5 Bft)
28.12.2014 06:14 -3,8 C -4,4 C 83 % 1016,7 hPa 0,0 l/m 0 min 0 min 0 W/m 23,0 km/h (4 Bft)
28.12.2014 06:16 -3,8 C -4,4 C 83 % 1016,7 hPa 0,0 l/m 0 min 0 min 0 W/m 31,4 km/h (5 Bft)
28.12.2014 06:18 -3,8 C -5,0 C 83 % 1016,7 hPa 0,0 l/m 0 min 0 min 0 W/m 29,3 km/h (5 Bft)
28.12.2014 06:20 -3,8 C -5,0 C 83 % 1016,9 hPa 0,0 l/m 0 min 0 min 0 W/m 33,5 km/h (5 Bft)
28.12.2014 06:22 -3,8 C -5,0 C 83 % 1016,9 hPa 0,0 l/m 0 min 0 min 0 W/m 29,3 km/h (5 Bft)
28.12.2014 06:24 -3,8 C -5,0 C 83 % 1017,0 hPa 0,0 l/m 0 min 0 min 0 W/m 33,5 km/h (5 Bft)
28.12.2014 06:26 -3,8 C -5,0 C 83 % 1017,2 hPa 0,0 l/m 0 min 0 min 0 W/m 27,2 km/h (4 Bft)
28.12.2014 06:28 -3,9 C -5,0 C 83 % 1017,2 hPa 0,0 l/m 0 min 0 min 0 W/m 25,1 km/h (4 Bft)
28.12.2014 06:30 -3,9 C -5,0 C 82 % 1017,2 hPa 0,0 l/m 0 min 0 min 0 W/m 33,5 km/h (5 Bft)
28.12.2014 06:32 -3,9 C -5,0 C 82 % 1017,4 hPa 0,0 l/m 0 min 0 min 0 W/m 29,3 km/h (5 Bft)
28.12.2014 06:34 -3,9 C -5,0 C 82 % 1017,5 hPa 0,0 l/m 0 min 0 min 0 W/m 23,0 km/h (4 Bft)
28.12.2014 06:36 -3,9 C -5,0 C 82 % 1017,5 hPa 0,0 l/m 0 min 0 min 0 W/m 35,6 km/h (5 Bft)
28.12.2014 06:38 -3,9 C -5,0 C 82 % 1017,5 hPa 0,0 l/m 0 min 0 min 0 W/m 27,2 km/h (4 Bft)
28.12.2014 06:40 -3,9 C -5,0 C 82 % 1017,5 hPa 0,0 l/m 0 min 0 min 0 W/m 31,4 km/h (5 Bft)
28.12.2014 06:42 -3,9 C -5,0 C 82 % 1017,6 hPa 0,0 l/m 0 min 0 min 0 W/m 35,6 km/h (5 Bft)
28.12.2014 06:44 -3,9 C -5,0 C 82 % 1017,7 hPa 0,0 l/m 0 min 0 min 0 W/m 27,2 km/h (4 Bft)
28.12.2014 06:46 -3,9 C -5,0 C 82 % 1017,6 hPa 0,0 l/m 0 min 0 min 0 W/m 29,3 km/h (5 Bft)
28.12.2014 06:48 -4,0 C -5,0 C 82 % 1017,8 hPa 0,0 l/m 0 min 0 min 0 W/m 20,9 km/h (4 Bft)
28.12.2014 06:50 -4,0 C -5,0 C 82 % 1017,8 hPa 0,0 l/m 0 min 0 min 0 W/m 31,4 km/h (5 Bft)
28.12.2014 06:52 -4,0 C -5,0 C 82 % 1017,8 hPa 0,0 l/m 0 min 0 min 0 W/m 31,4 km/h (5 Bft)
28.12.2014 06:54 -4,0 C -5,0 C 82 % 1017,8 hPa 0,0 l/m 0 min 0 min 0 W/m 20,9 km/h (4 Bft)
28.12.2014 06:56 -4,1 C -5,0 C 82 % 1018,0 hPa 0,0 l/m 0 min 0 min 0 W/m 16,7 km/h (3 Bft)
28.12.2014 06:58 -4,1 C -5,0 C 82 % 1017,9 hPa 0,0 l/m 0 min 0 min 0 W/m 27,2 km/h (4 Bft)
28.12.2014 07:00 -4,1 C -5,0 C 82 % 1018,1 hPa 0,0 l/m 0 min 0 min 0 W/m 27,2 km/h (4 Bft)
28.12.2014 07:02 -4,1 C -5,0 C 82 % 1018,1 hPa 0,0 l/m 0 min 0 min 0 W/m 25,1 km/h (4 Bft)
28.12.2014 07:04 -4,1 C -5,0 C 82 % 1018,3 hPa 0,0 l/m 0 min 0 min 0 W/m 29,3 km/h (5 Bft)
28.12.2014 07:06 -4,1 C -5,0 C 82 % 1018,4 hPa 0,0 l/m 0 min 0 min 0 W/m 31,4 km/h (5 Bft)
28.12.2014 07:08 -4,1 C -5,0 C 82 % 1018,4 hPa 0,0 l/m 0 min 0 min 0 W/m 33,5 km/h (5 Bft)
28.12.2014 07:10 -4,1 C -5,0 C 82 % 1018,6 hPa 0,0 l/m 0 min 0 min 0 W/m 31,4 km/h (5 Bft)
28.12.2014 07:12 -4,1 C -5,0 C 81 % 1018,6 hPa 0,0 l/m 0 min 0 min 0 W/m 27,2 km/h (4 Bft)
28.12.2014 07:14 -4,1 C -5,0 C 81 % 1018,7 hPa 0,0 l/m 0 min 0 min 0 W/m 37,7 km/h (5 Bft)
28.12.2014 07:16 -4,1 C -5,0 C 81 % 1018,8 hPa 0,0 l/m 0 min 0 min 0 W/m 33,5 km/h (5 Bft)
28.12.2014 07:18 -4,1 C -5,0 C 81 % 1018,8 hPa 0,0 l/m 0 min 0 min 0 W/m 31,4 km/h (5 Bft)
28.12.2014 07:20 -4,1 C -5,0 C 81 % 1018,8 hPa 0,0 l/m 0 min 0 min 0 W/m 31,4 km/h (5 Bft)
28.12.2014 07:22 -4,1 C -5,0 C 81 % 1018,8 hPa 0,0 l/m 0 min 0 min 0 W/m 25,1 km/h (4 Bft)
28.12.2014 07:24 -4,1 C -5,0 C 81 % 1018,9 hPa 0,0 l/m 0 min 0 min 0 W/m 31,4 km/h (5 Bft)
28.12.2014 07:26 -4,1 C -5,0 C 81 % 1019,0 hPa 0,0 l/m 0 min 0 min 0 W/m 33,5 km/h (5 Bft)
28.12.2014 07:28 -4,1 C -5,0 C 81 % 1019,0 hPa 0,0 l/m 0 min 0 min 0 W/m 29,3 km/h (5 Bft)
28.12.2014 07:30 -4,2 C -5,0 C 81 % 1019,0 hPa 0,0 l/m 0 min 0 min 0 W/m 27,2 km/h (4 Bft)
28.12.2014 07:32 -4,2 C -5,0 C 81 % 1019,1 hPa 0,0 l/m 0 min 0 min 0 W/m 23,0 km/h (4 Bft)
28.12.2014 07:34 -4,2 C -5,0 C 81 % 1019,2 hPa 0,0 l/m 0 min 0 min 0 W/m 29,3 km/h (5 Bft)
28.12.2014 07:36 -4,2 C -5,0 C 81 % 1019,2 hPa 0,0 l/m 0 min 0 min 0 W/m 29,3 km/h (5 Bft)
28.12.2014 07:38 -4,2 C -5,0 C 81 % 1019,2 hPa 0,0 l/m 0 min 0 min 0 W/m 23,0 km/h (4 Bft)
28.12.2014 07:40 -4,2 C -5,0 C 81 % 1019,3 hPa 0,0 l/m 0 min 0 min 0 W/m 23,0 km/h (4 Bft)
28.12.2014 07:42 -4,2 C -5,0 C 81 % 1019,3 hPa 0,0 l/m 0 min 0 min 0 W/m 14,6 km/h (3 Bft)
28.12.2014 07:44 -4,2 C -5,0 C 81 % 1019,4 hPa 0,0 l/m 0 min 0 min 0 W/m 20,9 km/h (4 Bft)
28.12.2014 07:46 -4,2 C -5,0 C 81 % 1019,4 hPa 0,0 l/m 0 min 0 min 0 W/m 16,7 km/h (3 Bft)
28.12.2014 07:48 -4,3 C -5,0 C 81 % 1019,4 hPa 0,0 l/m 0 min 0 min 0 W/m 20,9 km/h (4 Bft)
28.12.2014 07:50 -4,3 C -5,0 C 81 % 1019,5 hPa 0,0 l/m 0 min 0 min 0 W/m 31,4 km/h (5 Bft)
28.12.2014 07:52 -4,3 C -5,0 C 81 % 1019,6 hPa 0,0 l/m 0 min 0 min 0 W/m 33,5 km/h (5 Bft)
28.12.2014 07:54 -4,3 C -5,0 C 81 % 1019,7 hPa 0,0 l/m 0 min 0 min 0 W/m 27,2 km/h (4 Bft)
28.12.2014 07:56 -4,3 C -5,0 C 81 % 1019,7 hPa 0,0 l/m 0 min 0 min 0 W/m 29,3 km/h (5 Bft)
28.12.2014 07:58 -4,3 C -5,0 C 81 % 1019,8 hPa 0,0 l/m 0 min 0 min 0 W/m 29,3 km/h (5 Bft)
28.12.2014 08:00 -4,3 C -5,0 C 81 % 1019,8 hPa 0,0 l/m 0 min 0 min 0 W/m 27,2 km/h (4 Bft)
28.12.2014 08:02 -4,3 C -5,6 C 81 % 1019,9 hPa 0,0 l/m 0 min 0 min 0 W/m 31,4 km/h (5 Bft)
28.12.2014 08:04 -4,3 C -5,0 C 81 % 1019,9 hPa 0,0 l/m 0 min 0 min 0 W/m 27,2 km/h (4 Bft)
28.12.2014 08:06 -4,3 C -5,0 C 81 % 1020,0 hPa 0,0 l/m 0 min 0 min 0 W/m 23,0 km/h (4 Bft)
28.12.2014 08:08 -4,3 C -5,0 C 81 % 1020,1 hPa 0,0 l/m 0 min 0 min 0 W/m 27,2 km/h (4 Bft)
28.12.2014 08:10 -4,3 C -5,0 C 81 % 1020,2 hPa 0,0 l/m 0 min 0 min 0 W/m 29,3 km/h (5 Bft)
28.12.2014 08:12 -4,3 C -5,0 C 81 % 1020,2 hPa 0,0 l/m 0 min 0 min 0 W/m 18,8 km/h (3 Bft)
28.12.2014 08:14 -4,3 C -5,0 C 81 % 1020,3 hPa 0,0 l/m 0 min 0 min 0 W/m 37,7 km/h (5 Bft)
28.12.2014 08:16 -4,3 C -5,0 C 81 % 1020,3 hPa 0,0 l/m 0 min 0 min 0 W/m 25,1 km/h (4 Bft)
28.12.2014 08:18 -4,3 C -5,0 C 81 % 1020,4 hPa 0,0 l/m 0 min 0 min 0 W/m 20,9 km/h (4 Bft)
28.12.2014 08:20 -4,3 C -5,0 C 81 % 1020,5 hPa 0,0 l/m 0 min 0 min 0 W/m 35,6 km/h (5 Bft)
28.12.2014 08:22 -4,4 C -5,0 C 81 % 1020,6 hPa 0,0 l/m 0 min 0 min 0 W/m 18,8 km/h (3 Bft)
28.12.2014 08:24 -4,4 C -5,6 C 81 % 1020,7 hPa 0,0 l/m 0 min 0 min 0 W/m 16,7 km/h (3 Bft)
28.12.2014 08:26 -4,4 C -5,6 C 81 % 1020,7 hPa 0,0 l/m 0 min 0 min 0 W/m 23,0 km/h (4 Bft)
28.12.2014 08:28 -4,4 C -5,6 C 81 % 1020,8 hPa 0,0 l/m 0 min 0 min 0 W/m 20,9 km/h (4 Bft)
28.12.2014 08:30 -4,4 C -5,6 C 81 % 1020,9 hPa 0,0 l/m 0 min 0 min 0 W/m 20,9 km/h (4 Bft)
28.12.2014 08:32 -4,4 C -5,6 C 81 % 1020,9 hPa 0,0 l/m 0 min 0 min 0 W/m 25,1 km/h (4 Bft)
28.12.2014 08:34 -4,4 C -5,6 C 81 % 1020,9 hPa 0,0 l/m 0 min 0 min 0 W/m 23,0 km/h (4 Bft)
28.12.2014 08:36 -4,4 C -5,0 C 81 % 1021,0 hPa 0,0 l/m 0 min 0 min 3 W/m 23,0 km/h (4 Bft)
28.12.2014 08:38 -4,4 C -5,6 C 81 % 1021,0 hPa 0,0 l/m 0 min 0 min 5 W/m 20,9 km/h (4 Bft)
28.12.2014 08:40 -4,4 C -5,6 C 81 % 1021,0 hPa 0,0 l/m 0 min 0 min 5 W/m 29,3 km/h (5 Bft)
28.12.2014 08:42 -4,4 C -5,6 C 81 % 1021,1 hPa 0,0 l/m 0 min 0 min 5 W/m 29,3 km/h (5 Bft)
28.12.2014 08:44 -4,4 C -5,6 C 81 % 1021,2 hPa 0,0 l/m 0 min 0 min 7 W/m 25,1 km/h (4 Bft)
28.12.2014 08:46 -4,4 C -5,6 C 81 % 1021,3 hPa 0,0 l/m 0 min 0 min 7 W/m 31,4 km/h (5 Bft)
28.12.2014 08:48 -4,4 C -5,6 C 81 % 1021,3 hPa 0,0 l/m 0 min 0 min 9 W/m 18,8 km/h (3 Bft)
28.12.2014 08:50 -4,4 C -5,6 C 81 % 1021,5 hPa 0,0 l/m 0 min 0 min 9 W/m 23,0 km/h (4 Bft)
28.12.2014 08:52 -4,4 C -5,6 C 81 % 1021,6 hPa 0,0 l/m 0 min 0 min 10 W/m 23,0 km/h (4 Bft)
28.12.2014 08:54 -4,5 C -5,0 C 81 % 1021,9 hPa 0,0 l/m 0 min 0 min 12 W/m 25,1 km/h (4 Bft)
28.12.2014 08:56 -4,5 C -5,0 C 81 % 1022,0 hPa 0,0 l/m 2 min 0 min 14 W/m 23,0 km/h (4 Bft)
28.12.2014 08:58 -4,5 C -5,0 C 81 % 1022,0 hPa 0,0 l/m 2 min 0 min 14 W/m 27,2 km/h (4 Bft)
28.12.2014 09:00 -4,5 C -5,0 C 81 % 1022,1 hPa 0,0 l/m 2 min 0 min 16 W/m 20,9 km/h (4 Bft)
28.12.2014 09:02 -4,5 C -5,0 C 81 % 1022,1 hPa 0,0 l/m 2 min 0 min 18 W/m 29,3 km/h (5 Bft)
28.12.2014 09:04 -4,5 C -5,0 C 81 % 1022,1 hPa 0,0 l/m 0 min 0 min 18 W/m 27,2 km/h (4 Bft)
28.12.2014 09:06 -4,4 C -5,0 C 81 % 1022,2 hPa 0,0 l/m 0 min 0 min 19 W/m 16,7 km/h (3 Bft)
28.12.2014 09:08 -4,4 C -5,0 C 81 % 1022,2 hPa 0,0 l/m 0 min 0 min 20 W/m 18,8 km/h (3 Bft)
28.12.2014 09:10 -4,4 C -5,0 C 81 % 1022,4 hPa 0,0 l/m 0 min 0 min 21 W/m 20,9 km/h (4 Bft)
28.12.2014 09:12 -4,4 C -5,0 C 81 % 1022,7 hPa 0,0 l/m 0 min 0 min 23 W/m 29,3 km/h (5 Bft)
28.12.2014 09:14 -4,4 C -5,0 C 81 % 1022,6 hPa 0,0 l/m 0 min 0 min 24 W/m 23,0 km/h (4 Bft)
28.12.2014 09:16 -4,4 C -5,0 C 81 % 1022,7 hPa 0,0 l/m 0 min 0 min 25 W/m 29,3 km/h (5 Bft)
28.12.2014 09:18 -4,4 C -5,0 C 81 % 1022,7 hPa 0,0 l/m 0 min 0 min 27 W/m 31,4 km/h (5 Bft)
28.12.2014 09:20 -4,4 C -5,0 C 81 % 1022,7 hPa 0,0 l/m 0 min 0 min 29 W/m 20,9 km/h (4 Bft)
28.12.2014 09:22 -4,4 C -5,0 C 81 % 1022,8 hPa 0,0 l/m 0 min 0 min 31 W/m 18,8 km/h (3 Bft)
28.12.2014 09:24 -4,4 C -5,0 C 81 % 1022,8 hPa 0,0 l/m 0 min 0 min 34 W/m 25,1 km/h (4 Bft)
28.12.2014 09:26 -4,3 C -5,0 C 81 % 1022,9 hPa 0,0 l/m 0 min 0 min 36 W/m 27,2 km/h (4 Bft)
28.12.2014 09:28 -4,4 C -5,0 C 81 % 1022,9 hPa 0,0 l/m 0 min 0 min 39 W/m 16,7 km/h (3 Bft)
28.12.2014 09:30 -4,3 C -5,0 C 81 % 1023,0 hPa 0,0 l/m 0 min 0 min 41 W/m 20,9 km/h (4 Bft)
28.12.2014 09:32 -4,3 C -5,0 C 81 % 1023,0 hPa 0,0 l/m 0 min 0 min 44 W/m 23,0 km/h (4 Bft)
28.12.2014 09:34 -4,3 C -5,0 C 81 % 1023,0 hPa 0,0 l/m 0 min 0 min 46 W/m 16,7 km/h (3 Bft)
28.12.2014 09:36 -4,3 C -5,0 C 81 % 1023,1 hPa 0,0 l/m 0 min 0 min 49 W/m 20,9 km/h (4 Bft)
28.12.2014 09:38 -4,3 C -5,0 C 81 % 1023,2 hPa 0,0 l/m 2 min 0 min 53 W/m 25,1 km/h (4 Bft)
28.12.2014 09:40 -4,3 C -5,0 C 81 % 1023,3 hPa 0,0 l/m 2 min 0 min 55 W/m 25,1 km/h (4 Bft)
28.12.2014 09:42 -4,3 C -5,0 C 81 % 1023,4 hPa 0,0 l/m 2 min 0 min 58 W/m 20,9 km/h (4 Bft)
28.12.2014 09:44 -4,3 C -5,0 C 81 % 1023,5 hPa 0,0 l/m 2 min 0 min 62 W/m 23,0 km/h (4 Bft)
28.12.2014 09:46 -4,3 C -5,0 C 81 % 1023,5 hPa 0,0 l/m 2 min 0 min 64 W/m 20,9 km/h (4 Bft)
28.12.2014 09:48 -4,2 C -5,0 C 81 % 1023,6 hPa 0,0 l/m 2 min 0 min 68 W/m 20,9 km/h (4 Bft)
28.12.2014 09:50 -4,2 C -5,0 C 81 % 1023,6 hPa 0,0 l/m 2 min 0 min 71 W/m 23,0 km/h (4 Bft)
28.12.2014 09:52 -4,2 C -5,0 C 81 % 1023,7 hPa 0,0 l/m 2 min 0 min 74 W/m 18,8 km/h (3 Bft)
28.12.2014 09:54 -4,2 C -5,0 C 81 % 1023,9 hPa 0,0 l/m 2 min 0 min 77 W/m 25,1 km/h (4 Bft)
28.12.2014 09:56 -4,2 C -5,0 C 81 % 1024,0 hPa 0,0 l/m 2 min 0 min 81 W/m 23,0 km/h (4 Bft)
28.12.2014 09:58 -4,1 C -5,0 C 81 % 1024,0 hPa 0,0 l/m 2 min 0 min 84 W/m 18,8 km/h (3 Bft)
28.12.2014 10:00 -4,1 C -5,0 C 81 % 1024,1 hPa 0,0 l/m 2 min 0 min 87 W/m 16,7 km/h (3 Bft)
28.12.2014 10:02 -4,1 C -5,0 C 81 % 1024,1 hPa 0,0 l/m 2 min 0 min 91 W/m 18,8 km/h (3 Bft)
28.12.2014 10:04 -4,1 C -5,0 C 81 % 1024,2 hPa 0,0 l/m 2 min 0 min 94 W/m 20,9 km/h (4 Bft)
28.12.2014 10:06 -4,1 C -4,4 C 82 % 1024,3 hPa 0,0 l/m 2 min 0 min 97 W/m 31,4 km/h (5 Bft)
28.12.2014 10:08 -4,1 C -4,4 C 82 % 1024,3 hPa 0,0 l/m 2 min 0 min 101 W/m 18,8 km/h (3 Bft)
28.12.2014 10:10 -4,0 C -4,4 C 82 % 1024,3 hPa 0,0 l/m 2 min 0 min 105 W/m 25,1 km/h (4 Bft)
28.12.2014 10:12 -4,0 C -4,4 C 82 % 1024,4 hPa 0,0 l/m 2 min 0 min 107 W/m 23,0 km/h (4 Bft)
28.12.2014 10:14 -4,0 C -4,4 C 82 % 1024,4 hPa 0,0 l/m 2 min 0 min 112 W/m 20,9 km/h (4 Bft)
28.12.2014 10:16 -4,0 C -4,4 C 82 % 1024,4 hPa 0,0 l/m 2 min 0 min 115 W/m 18,8 km/h (3 Bft)
28.12.2014 10:18 -3,9 C -4,4 C 82 % 1024,6 hPa 0,0 l/m 2 min 0 min 119 W/m 20,9 km/h (4 Bft)
28.12.2014 10:20 -3,9 C -4,4 C 82 % 1024,6 hPa 0,0 l/m 2 min 0 min 122 W/m 20,9 km/h (4 Bft)
28.12.2014 10:22 -3,9 C -4,4 C 81 % 1024,7 hPa 0,0 l/m 2 min 0 min 125 W/m 23,0 km/h (4 Bft)
28.12.2014 10:24 -3,9 C -4,4 C 82 % 1024,7 hPa 0,0 l/m 2 min 0 min 129 W/m 18,8 km/h (3 Bft)
28.12.2014 10:26 -3,8 C -4,4 C 82 % 1024,9 hPa 0,0 l/m 2 min 0 min 133 W/m 25,1 km/h (4 Bft)
28.12.2014 10:28 -3,8 C -4,4 C 82 % 1024,9 hPa 0,0 l/m 2 min 0 min 136 W/m 27,2 km/h (4 Bft)
28.12.2014 10:30 -3,8 C -4,4 C 81 % 1024,9 hPa 0,0 l/m 2 min 0 min 139 W/m 25,1 km/h (4 Bft)
28.12.2014 10:32 -3,8 C -4,4 C 81 % 1025,0 hPa 0,0 l/m 2 min 0 min 143 W/m 29,3 km/h (5 Bft)
28.12.2014 10:34 -3,8 C -4,4 C 81 % 1024,9 hPa 0,0 l/m 2 min 0 min 145 W/m 25,1 km/h (4 Bft)
28.12.2014 10:36 -3,7 C -4,4 C 82 % 1025,2 hPa 0,0 l/m 2 min 0 min 148 W/m 25,1 km/h (4 Bft)
28.12.2014 10:38 -3,7 C -4,4 C 81 % 1025,2 hPa 0,0 l/m 2 min 0 min 152 W/m 20,9 km/h (4 Bft)
28.12.2014 10:40 -3,7 C -4,4 C 81 % 1025,3 hPa 0,0 l/m 2 min 0 min 155 W/m 20,9 km/h (4 Bft)
28.12.2014 10:42 -3,6 C -4,4 C 81 % 1025,3 hPa 0,0 l/m 2 min 0 min 158 W/m 16,7 km/h (3 Bft)
28.12.2014 10:44 -3,6 C -4,4 C 81 % 1025,4 hPa 0,0 l/m 2 min 0 min 161 W/m 23,0 km/h (4 Bft)
28.12.2014 10:46 -3,6 C -4,4 C 81 % 1025,3 hPa 0,0 l/m 2 min 0 min 165 W/m 25,1 km/h (4 Bft)
28.12.2014 10:48 -3,6 C -4,4 C 81 % 1025,4 hPa 0,0 l/m 2 min 0 min 169 W/m 27,2 km/h (4 Bft)
28.12.2014 10:50 -3,5 C -4,4 C 81 % 1025,4 hPa 0,0 l/m 2 min 0 min 171 W/m 18,8 km/h (3 Bft)
28.12.2014 10:52 -3,5 C -3,9 C 81 % 1025,3 hPa 0,0 l/m 2 min 0 min 174 W/m 25,1 km/h (4 Bft)
28.12.2014 10:54 -3,4 C -3,9 C 81 % 1025,4 hPa 0,0 l/m 2 min 0 min 178 W/m 23,0 km/h (4 Bft)
28.12.2014 10:56 -3,4 C -3,9 C 81 % 1025,4 hPa 0,0 l/m 2 min 0 min 179 W/m 25,1 km/h (4 Bft)
28.12.2014 10:58 -3,4 C -3,9 C 81 % 1025,4 hPa 0,0 l/m 2 min 0 min 183 W/m 20,9 km/h (4 Bft)
28.12.2014 11:00 -3,4 C -3,9 C 81 % 1025,4 hPa 0,0 l/m 2 min 0 min 185 W/m 25,1 km/h (4 Bft)
28.12.2014 11:02 -3,3 C -3,9 C 80 % 1025,5 hPa 0,0 l/m 2 min 0 min 189 W/m 23,0 km/h (4 Bft)
28.12.2014 11:04 -3,3 C -3,9 C 80 % 1025,5 hPa 0,0 l/m 2 min 0 min 192 W/m 29,3 km/h (5 Bft)
28.12.2014 11:06 -3,3 C -3,9 C 81 % 1025,5 hPa 0,0 l/m 2 min 0 min 193 W/m 20,9 km/h (4 Bft)
28.12.2014 11:08 -3,3 C -3,9 C 80 % 1025,6 hPa 0,0 l/m 2 min 0 min 196 W/m 18,8 km/h (3 Bft)
28.12.2014 11:10 -3,2 C -3,9 C 80 % 1025,7 hPa 0,0 l/m 2 min 0 min 199 W/m 14,6 km/h (3 Bft)
28.12.2014 11:12 -3,2 C -3,9 C 80 % 1025,7 hPa 0,0 l/m 2 min 0 min 201 W/m 23,0 km/h (4 Bft)
28.12.2014 11:14 -3,2 C -3,9 C 80 % 1025,7 hPa 0,0 l/m 2 min 0 min 202 W/m 23,0 km/h (4 Bft)
28.12.2014 11:16 -3,1 C -3,9 C 80 % 1025,7 hPa 0,0 l/m 2 min 0 min 206 W/m 31,4 km/h (5 Bft)
28.12.2014 11:18 -3,1 C -3,9 C 80 % 1025,8 hPa 0,0 l/m 2 min 0 min 206 W/m 23,0 km/h (4 Bft)
28.12.2014 11:20 -3,1 C -3,9 C 80 % 1025,8 hPa 0,0 l/m 2 min 0 min 209 W/m 27,2 km/h (4 Bft)
28.12.2014 11:22 -3,0 C -3,9 C 80 % 1025,8 hPa 0,0 l/m 2 min 0 min 211 W/m 25,1 km/h (4 Bft)
28.12.2014 11:24 -3,0 C -3,9 C 80 % 1025,8 hPa 0,0 l/m 2 min 0 min 212 W/m 23,0 km/h (4 Bft)
28.12.2014 11:26 -3,0 C -3,9 C 80 % 1025,9 hPa 0,0 l/m 2 min 0 min 216 W/m 23,0 km/h (4 Bft)
28.12.2014 11:28 -2,9 C -3,9 C 80 % 1025,9 hPa 0,0 l/m 2 min 0 min 216 W/m 23,0 km/h (4 Bft)
28.12.2014 11:30 -2,9 C -3,9 C 79 % 1026,0 hPa 0,0 l/m 2 min 0 min 219 W/m 27,2 km/h (4 Bft)
28.12.2014 11:32 -2,9 C -3,9 C 80 % 1025,9 hPa 0,0 l/m 2 min 0 min 221 W/m 29,3 km/h (5 Bft)
28.12.2014 11:34 -2,9 C -3,9 C 79 % 1025,9 hPa 0,0 l/m 2 min 0 min 222 W/m 27,2 km/h (4 Bft)
28.12.2014 11:36 -2,8 C -3,9 C 79 % 1026,1 hPa 0,0 l/m 2 min 0 min 225 W/m 33,5 km/h (5 Bft)
28.12.2014 11:38 -2,8 C -3,9 C 79 % 1026,0 hPa 0,0 l/m 2 min 0 min 225 W/m 25,1 km/h (4 Bft)
28.12.2014 11:40 -2,8 C -3,9 C 79 % 1026,1 hPa 0,0 l/m 2 min 0 min 226 W/m 20,9 km/h (4 Bft)
28.12.2014 11:42 -2,8 C -3,9 C 79 % 1026,1 hPa 0,0 l/m 2 min 0 min 228 W/m 25,1 km/h (4 Bft)
28.12.2014 11:44 -2,8 C -3,9 C 79 % 1026,2 hPa 0,0 l/m 2 min 0 min 228 W/m 23,0 km/h (4 Bft)
28.12.2014 11:46 -2,7 C -3,9 C 79 % 1026,2 hPa 0,0 l/m 2 min 0 min 230 W/m 20,9 km/h (4 Bft)
28.12.2014 11:48 -2,7 C -3,9 C 79 % 1026,2 hPa 0,0 l/m 2 min 0 min 231 W/m 18,8 km/h (3 Bft)
28.12.2014 11:50 -2,7 C -3,3 C 78 % 1026,2 hPa 0,0 l/m 2 min 0 min 234 W/m 18,8 km/h (3 Bft)
28.12.2014 11:52 -2,6 C -3,3 C 78 % 1026,2 hPa 0,0 l/m 2 min 0 min 235 W/m 20,9 km/h (4 Bft)
28.12.2014 11:54 -2,6 C -3,3 C 79 % 1026,3 hPa 0,0 l/m 2 min 0 min 236 W/m 16,7 km/h (3 Bft)
28.12.2014 11:56 -2,6 C -3,3 C 78 % 1026,2 hPa 0,0 l/m 2 min 0 min 236 W/m 20,9 km/h (4 Bft)
28.12.2014 11:58 -2,5 C -3,3 C 78 % 1026,3 hPa 0,0 l/m 2 min 0 min 237 W/m 16,7 km/h (3 Bft)
28.12.2014 12:00 -2,4 C -3,3 C 78 % 1026,3 hPa 0,0 l/m 2 min 0 min 237 W/m 20,9 km/h (4 Bft)
28.12.2014 12:02 -2,4 C -3,3 C 78 % 1026,3 hPa 0,0 l/m 2 min 0 min 238 W/m 16,7 km/h (3 Bft)
28.12.2014 12:05 -2,3 C -3,3 C 78 % 1026,3 hPa 0,0 l/m 2 min 0 min 239 W/m 27,2 km/h (4 Bft)
28.12.2014 12:08 -2,3 C -3,3 C 78 % 1026,3 hPa 0,0 l/m 2 min 0 min 240 W/m 27,2 km/h (4 Bft)
28.12.2014 12:10 -2,2 C -3,3 C 78 % 1026,4 hPa 0,0 l/m 2 min 0 min 241 W/m 18,8 km/h (3 Bft)
28.12.2014 12:12 -2,2 C -3,3 C 78 % 1026,4 hPa 0,0 l/m 2 min 0 min 239 W/m 18,8 km/h (3 Bft)
28.12.2014 12:14 -2,1 C -3,3 C 78 % 1026,4 hPa 0,0 l/m 2 min 0 min 242 W/m 18,8 km/h (3 Bft)
28.12.2014 12:16 -2,1 C -2,8 C 77 % 1026,5 hPa 0,0 l/m 2 min 0 min 243 W/m 18,8 km/h (3 Bft)
28.12.2014 12:18 -2,0 C -2,8 C 77 % 1026,4 hPa 0,0 l/m 2 min 0 min 243 W/m 18,8 km/h (3 Bft)
28.12.2014 12:20 -2,0 C -2,8 C 77 % 1026,4 hPa 0,0 l/m 2 min 0 min 243 W/m 16,7 km/h (3 Bft)
28.12.2014 12:22 -1,9 C -2,8 C 76 % 1026,4 hPa 0,0 l/m 2 min 0 min 243 W/m 14,6 km/h (3 Bft)
28.12.2014 12:24 -1,9 C -2,8 C 76 % 1026,6 hPa 0,0 l/m 2 min 0 min 244 W/m 18,8 km/h (3 Bft)
28.12.2014 12:26 -1,8 C -2,8 C 76 % 1026,6 hPa 0,0 l/m 2 min 0 min 243 W/m 18,8 km/h (3 Bft)
28.12.2014 12:28 -1,9 C -2,8 C 75 % 1026,7 hPa 0,0 l/m 2 min 0 min 243 W/m 14,6 km/h (3 Bft)
28.12.2014 12:30 -1,9 C -2,8 C 75 % 1026,8 hPa 0,0 l/m 2 min 0 min 243 W/m 23,0 km/h (4 Bft)
28.12.2014 12:32 -2,0 C -2,8 C 74 % 1026,8 hPa 0,0 l/m 2 min 0 min 243 W/m 25,1 km/h (4 Bft)
28.12.2014 12:34 -2,0 C -2,8 C 74 % 1026,9 hPa 0,0 l/m 2 min 0 min 243 W/m 20,9 km/h (4 Bft)
28.12.2014 12:36 -1,9 C -2,8 C 74 % 1027,0 hPa 0,0 l/m 2 min 0 min 243 W/m 20,9 km/h (4 Bft)
28.12.2014 12:38 -1,9 C -2,8 C 74 % 1027,0 hPa 0,0 l/m 2 min 0 min 241 W/m 20,9 km/h (4 Bft)
28.12.2014 12:40 -1,9 C -2,8 C 74 % 1027,1 hPa 0,0 l/m 2 min 0 min 242 W/m 27,2 km/h (4 Bft)
28.12.2014 12:42 -1,8 C -2,8 C 75 % 1027,1 hPa 0,0 l/m 2 min 0 min 242 W/m 18,8 km/h (3 Bft)
28.12.2014 12:44 -1,6 C -2,8 C 75 % 1027,1 hPa 0,0 l/m 2 min 0 min 242 W/m 18,8 km/h (3 Bft)
28.12.2014 12:46 -1,6 C -2,8 C 74 % 1027,2 hPa 0,0 l/m 2 min 0 min 240 W/m 18,8 km/h (3 Bft)
28.12.2014 12:48 -1,6 C -2,8 C 74 % 1027,2 hPa 0,0 l/m 2 min 0 min 239 W/m 23,0 km/h (4 Bft)
28.12.2014 12:50 -1,6 C -2,8 C 73 % 1027,1 hPa 0,0 l/m 2 min 0 min 238 W/m 23,0 km/h (4 Bft)
28.12.2014 12:52 -1,6 C -2,8 C 73 % 1027,2 hPa 0,0 l/m 2 min 0 min 237 W/m 25,1 km/h (4 Bft)
28.12.2014 12:54 -1,6 C -2,8 C 73 % 1027,3 hPa 0,0 l/m 2 min 0 min 238 W/m 20,9 km/h (4 Bft)
28.12.2014 12:56 -1,5 C -2,8 C 72 % 1027,3 hPa 0,0 l/m 2 min 0 min 236 W/m 20,9 km/h (4 Bft)
28.12.2014 12:58 -1,5 C -2,8 C 72 % 1027,3 hPa 0,0 l/m 2 min 0 min 236 W/m 27,2 km/h (4 Bft)
28.12.2014 13:00 -1,5 C -2,8 C 72 % 1027,4 hPa 0,0 l/m 2 min 0 min 235 W/m 18,8 km/h (3 Bft)
28.12.2014 13:02 -1,4 C -2,8 C 71 % 1027,3 hPa 0,0 l/m 2 min 0 min 235 W/m 23,0 km/h (4 Bft)
28.12.2014 13:04 -1,4 C -2,8 C 71 % 1027,3 hPa 0,0 l/m 2 min 0 min 234 W/m 20,9 km/h (4 Bft)
28.12.2014 13:06 -1,5 C -2,8 C 71 % 1027,4 hPa 0,0 l/m 2 min 0 min 231 W/m 20,9 km/h (4 Bft)
28.12.2014 13:08 -1,6 C -2,8 C 71 % 1027,4 hPa 0,0 l/m 2 min 0 min 229 W/m 20,9 km/h (4 Bft)
28.12.2014 13:10 -1,5 C -2,2 C 71 % 1027,5 hPa 0,0 l/m 2 min 0 min 229 W/m 25,1 km/h (4 Bft)
28.12.2014 13:12 -1,5 C -2,2 C 70 % 1027,6 hPa 0,2 l/m 2 min 0 min 226 W/m 23,0 km/h (4 Bft)
28.12.2014 13:14 -1,5 C -2,2 C 71 % 1027,5 hPa 0,0 l/m 2 min 0 min 223 W/m 25,1 km/h (4 Bft)
28.12.2014 13:16 -1,5 C -2,2 C 70 % 1027,5 hPa 0,0 l/m 2 min 0 min 221 W/m 25,1 km/h (4 Bft)
28.12.2014 13:18 -1,6 C -2,2 C 70 % 1027,6 hPa 0,0 l/m 2 min 0 min 222 W/m 18,8 km/h (3 Bft)
28.12.2014 13:20 -1,4 C -2,2 C 72 % 1027,7 hPa 0,0 l/m 2 min 0 min 219 W/m 18,8 km/h (3 Bft)
28.12.2014 13:22 -1,4 C -2,2 C 72 % 1027,7 hPa 0,0 l/m 2 min 0 min 216 W/m 20,9 km/h (4 Bft)
28.12.2014 13:24 -1,4 C -2,2 C 72 % 1027,7 hPa 0,0 l/m 2 min 0 min 215 W/m 18,8 km/h (3 Bft)
28.12.2014 13:26 -1,4 C -2,2 C 72 % 1027,7 hPa 0,0 l/m 2 min 0 min 214 W/m 16,7 km/h (3 Bft)
28.12.2014 13:28 -1,4 C -2,2 C 72 % 1027,8 hPa 0,0 l/m 2 min 0 min 212 W/m 18,8 km/h (3 Bft)
28.12.2014 13:30 -1,4 C -2,2 C 72 % 1027,8 hPa 0,0 l/m 2 min 0 min 210 W/m 14,6 km/h (3 Bft)
28.12.2014 13:32 -1,4 C -2,2 C 72 % 1027,8 hPa 0,0 l/m 2 min 0 min 207 W/m 18,8 km/h (3 Bft)
28.12.2014 13:34 -1,4 C -2,2 C 72 % 1027,9 hPa 0,0 l/m 2 min 0 min 207 W/m 16,7 km/h (3 Bft)
28.12.2014 13:36 -1,3 C -2,2 C 72 % 1027,9 hPa 0,0 l/m 2 min 0 min 206 W/m 27,2 km/h (4 Bft)
28.12.2014 13:38 -1,3 C -2,2 C 72 % 1027,8 hPa 0,0 l/m 2 min 0 min 204 W/m 16,7 km/h (3 Bft)
28.12.2014 13:40 -1,3 C -2,2 C 72 % 1027,9 hPa 0,0 l/m 2 min 0 min 200 W/m 16,7 km/h (3 Bft)
28.12.2014 13:42 -1,2 C -2,2 C 71 % 1027,9 hPa 0,0 l/m 2 min 0 min 199 W/m 14,6 km/h (3 Bft)
28.12.2014 13:44 -1,2 C -2,2 C 71 % 1027,9 hPa 0,0 l/m 2 min 0 min 198 W/m 16,7 km/h (3 Bft)
28.12.2014 13:46 -1,2 C -2,2 C 71 % 1027,8 hPa 0,0 l/m 2 min 0 min 196 W/m 23,0 km/h (4 Bft)
28.12.2014 13:48 -1,2 C -2,2 C 71 % 1027,9 hPa 0,0 l/m 2 min 0 min 193 W/m 18,8 km/h (3 Bft)
28.12.2014 13:50 -1,2 C -2,2 C 71 % 1027,9 hPa 0,0 l/m 2 min 0 min 190 W/m 20,9 km/h (4 Bft)
28.12.2014 13:52 -1,2 C -2,2 C 71 % 1028,0 hPa 0,0 l/m 2 min 0 min 188 W/m 16,7 km/h (3 Bft)
28.12.2014 13:54 -1,2 C -2,2 C 72 % 1028,0 hPa 0,0 l/m 2 min 0 min 185 W/m 16,7 km/h (3 Bft)
28.12.2014 13:56 -1,2 C -2,2 C 72 % 1028,0 hPa 0,0 l/m 2 min 0 min 182 W/m 14,6 km/h (3 Bft)
28.12.2014 13:58 -1,3 C -2,2 C 73 % 1028,0 hPa 0,0 l/m 2 min 0 min 178 W/m 16,7 km/h (3 Bft)
28.12.2014 14:00 -1,3 C -2,2 C 74 % 1028,0 hPa 0,0 l/m 2 min 0 min 175 W/m 16,7 km/h (3 Bft)
28.12.2014 14:02 -1,3 C -2,2 C 74 % 1028,1 hPa 0,0 l/m 2 min 0 min 173 W/m 12,6 km/h (3 Bft)
28.12.2014 14:04 -1,3 C -2,2 C 75 % 1028,1 hPa 0,0 l/m 2 min 0 min 171 W/m 10,5 km/h (2 Bft)
28.12.2014 14:06 -1,3 C -2,2 C 76 % 1028,1 hPa 0,0 l/m 2 min 0 min 168 W/m 12,6 km/h (3 Bft)
28.12.2014 14:08 -1,3 C -2,2 C 76 % 1028,2 hPa 0,0 l/m 2 min 0 min 164 W/m 14,6 km/h (3 Bft)
28.12.2014 14:10 -1,3 C -2,2 C 76 % 1028,2 hPa 0,2 l/m 2 min 0 min 161 W/m 10,5 km/h (2 Bft)
28.12.2014 14:12 -1,3 C -2,2 C 76 % 1028,2 hPa 0,0 l/m 2 min 0 min 159 W/m 14,6 km/h (3 Bft)
28.12.2014 14:14 -1,3 C -2,2 C 76 % 1028,2 hPa 0,0 l/m 2 min 0 min 156 W/m 10,5 km/h (2 Bft)
28.12.2014 14:16 -1,3 C -2,2 C 77 % 1028,3 hPa 0,0 l/m 2 min 0 min 153 W/m 8,4 km/h (2 Bft)
28.12.2014 14:18 -1,2 C -2,2 C 77 % 1028,3 hPa 0,0 l/m 2 min 0 min 149 W/m 10,5 km/h (2 Bft)
28.12.2014 14:20 -1,2 C -2,2 C 77 % 1028,3 hPa 0,0 l/m 2 min 0 min 147 W/m 10,5 km/h (2 Bft)
28.12.2014 14:22 -1,2 C -2,2 C 77 % 1028,4 hPa 0,0 l/m 2 min 0 min 144 W/m 8,4 km/h (2 Bft)
28.12.2014 14:24 -1,2 C -2,2 C 77 % 1028,3 hPa 0,0 l/m 2 min 0 min 142 W/m 12,6 km/h (3 Bft)
28.12.2014 14:26 -1,2 C -2,2 C 77 % 1028,4 hPa 0,0 l/m 2 min 0 min 140 W/m 6,3 km/h (2 Bft)
28.12.2014 14:28 -1,2 C -2,2 C 77 % 1028,3 hPa 0,0 l/m 2 min 0 min 137 W/m 12,6 km/h (3 Bft)
28.12.2014 14:30 -1,2 C -2,2 C 77 % 1028,4 hPa 0,0 l/m 2 min 0 min 135 W/m 16,7 km/h (3 Bft)
28.12.2014 14:32 -1,2 C -2,2 C 77 % 1028,4 hPa 0,0 l/m 2 min 0 min 132 W/m 14,6 km/h (3 Bft)
28.12.2014 14:34 -1,1 C -2,2 C 77 % 1028,4 hPa 0,0 l/m 2 min 0 min 129 W/m 12,6 km/h (3 Bft)
28.12.2014 14:36 -1,1 C -2,2 C 77 % 1028,5 hPa 0,0 l/m 2 min 0 min 126 W/m 14,6 km/h (3 Bft)
28.12.2014 14:38 -1,1 C -2,2 C 77 % 1028,5 hPa 0,0 l/m 2 min 0 min 123 W/m 12,6 km/h (3 Bft)
28.12.2014 14:40 -1,1 C -2,2 C 77 % 1028,5 hPa 0,0 l/m 2 min 0 min 118 W/m 6,3 km/h (2 Bft)
28.12.2014 14:42 -1,1 C -2,2 C 78 % 1028,5 hPa 0,0 l/m 2 min 0 min 114 W/m 10,5 km/h (2 Bft)
28.12.2014 14:44 -1,1 C -2,2 C 78 % 1028,5 hPa 0,0 l/m 2 min 0 min 112 W/m 10,5 km/h (2 Bft)
28.12.2014 14:46 -1,1 C -2,2 C 78 % 1028,5 hPa 0,0 l/m 2 min 0 min 109 W/m 8,4 km/h (2 Bft)
28.12.2014 14:48 -1,1 C -2,2 C 79 % 1028,6 hPa 0,0 l/m 2 min 0 min 105 W/m 12,6 km/h (3 Bft)
28.12.2014 14:50 -1,1 C -2,2 C 79 % 1028,6 hPa 0,0 l/m 2 min 0 min 104 W/m 12,6 km/h (3 Bft)
28.12.2014 14:52 -1,1 C -2,2 C 79 % 1028,6 hPa 0,0 l/m 2 min 0 min 100 W/m 16,7 km/h (3 Bft)
28.12.2014 14:54 -1,1 C -2,2 C 79 % 1028,7 hPa 0,0 l/m 2 min 0 min 98 W/m 8,4 km/h (2 Bft)
28.12.2014 14:56 -1,1 C -2,2 C 79 % 1028,8 hPa 0,0 l/m 2 min 0 min 96 W/m 10,5 km/h (2 Bft)
28.12.2014 14:58 -1,1 C -2,2 C 79 % 1028,9 hPa 0,0 l/m 2 min 0 min 93 W/m 12,6 km/h (3 Bft)
28.12.2014 15:00 -1,1 C -2,2 C 79 % 1029,0 hPa 0,0 l/m 2 min 0 min 90 W/m 12,6 km/h (3 Bft)
28.12.2014 15:02 -1,1 C -2,2 C 79 % 1029,0 hPa 0,0 l/m 2 min 0 min 87 W/m 14,6 km/h (3 Bft)
28.12.2014 15:04 -1,0 C -2,2 C 79 % 1029,0 hPa 0,0 l/m 2 min 0 min 84 W/m 14,6 km/h (3 Bft)
28.12.2014 15:06 -1,0 C -2,2 C 79 % 1029,0 hPa 0,0 l/m 2 min 0 min 80 W/m 14,6 km/h (3 Bft)
28.12.2014 15:08 -1,0 C -2,2 C 79 % 1029,1 hPa 0,0 l/m 2 min 0 min 76 W/m 12,6 km/h (3 Bft)
28.12.2014 15:10 -1,0 C -2,2 C 80 % 1029,1 hPa 0,0 l/m 0 min 0 min 72 W/m 8,4 km/h (2 Bft)
28.12.2014 15:12 -1,0 C -2,2 C 80 % 1029,1 hPa 0,0 l/m 0 min 0 min 69 W/m 10,5 km/h (2 Bft)
28.12.2014 15:14 -1,0 C -2,2 C 80 % 1029,1 hPa 0,0 l/m 0 min 0 min 67 W/m 16,7 km/h (3 Bft)
28.12.2014 15:16 -1,0 C -2,2 C 80 % 1029,2 hPa 0,0 l/m 0 min 0 min 64 W/m 10,5 km/h (2 Bft)
28.12.2014 15:18 -1,0 C -2,2 C 80 % 1029,2 hPa 0,0 l/m 0 min 0 min 61 W/m 12,6 km/h (3 Bft)
28.12.2014 15:20 -1,1 C -2,2 C 80 % 1029,2 hPa 0,0 l/m 0 min 0 min 57 W/m 10,5 km/h (2 Bft)
28.12.2014 15:22 -1,1 C -2,2 C 81 % 1029,2 hPa 0,0 l/m 0 min 0 min 54 W/m 12,6 km/h (3 Bft)
28.12.2014 15:24 -1,1 C -2,2 C 81 % 1029,2 hPa 0,0 l/m 0 min 0 min 53 W/m 10,5 km/h (2 Bft)
28.12.2014 15:26 -1,1 C -2,2 C 81 % 1029,2 hPa 0,0 l/m 0 min 0 min 50 W/m 12,6 km/h (3 Bft)
28.12.2014 15:28 -1,1 C -2,2 C 81 % 1029,2 hPa 0,0 l/m 0 min 0 min 47 W/m 10,5 km/h (2 Bft)
28.12.2014 15:30 -1,1 C -2,2 C 81 % 1029,3 hPa 0,0 l/m 0 min 0 min 45 W/m 14,6 km/h (3 Bft)
28.12.2014 15:32 -1,1 C -2,2 C 81 % 1029,3 hPa 0,0 l/m 0 min 0 min 43 W/m 12,6 km/h (3 Bft)
28.12.2014 15:34 -1,1 C -2,2 C 81 % 1029,4 hPa 0,0 l/m 0 min 0 min 40 W/m 10,5 km/h (2 Bft)
28.12.2014 15:36 -1,1 C -2,2 C 82 % 1029,5 hPa 0,0 l/m 0 min 0 min 39 W/m 12,6 km/h (3 Bft)
28.12.2014 15:38 -1,1 C -2,2 C 82 % 1029,5 hPa 0,0 l/m 0 min 0 min 38 W/m 12,6 km/h (3 Bft)
28.12.2014 15:40 -1,1 C -2,2 C 82 % 1029,5 hPa 0,0 l/m 0 min 0 min 35 W/m 8,4 km/h (2 Bft)
28.12.2014 15:42 -1,2 C -2,8 C 82 % 1029,5 hPa 0,0 l/m 0 min 0 min 33 W/m 8,4 km/h (2 Bft)
28.12.2014 15:44 -1,2 C -2,8 C 82 % 1029,5 hPa 0,0 l/m 0 min 0 min 33 W/m 8,4 km/h (2 Bft)
28.12.2014 15:46 -1,2 C -2,8 C 82 % 1029,6 hPa 0,0 l/m 0 min 0 min 32 W/m 8,4 km/h (2 Bft)
28.12.2014 15:48 -1,2 C -2,8 C 82 % 1029,6 hPa 0,0 l/m 0 min 0 min 31 W/m 6,3 km/h (2 Bft)
28.12.2014 15:50 -1,2 C -2,8 C 82 % 1029,6 hPa 0,0 l/m 0 min 0 min 30 W/m 8,4 km/h (2 Bft)
28.12.2014 15:52 -1,2 C -2,8 C 82 % 1029,7 hPa 0,0 l/m 0 min 0 min 29 W/m 8,4 km/h (2 Bft)
28.12.2014 15:54 -1,2 C -2,8 C 82 % 1029,7 hPa 0,0 l/m 0 min 0 min 28 W/m 8,4 km/h (2 Bft)
28.12.2014 15:56 -1,2 C -2,8 C 82 % 1029,7 hPa 0,0 l/m 0 min 0 min 26 W/m 8,4 km/h (2 Bft)
28.12.2014 15:58 -1,3 C -2,8 C 82 % 1029,8 hPa 0,0 l/m 0 min 0 min 25 W/m 8,4 km/h (2 Bft)
28.12.2014 16:00 -1,3 C -2,8 C 82 % 1029,9 hPa 0,0 l/m 0 min 0 min 24 W/m 8,4 km/h (2 Bft)
28.12.2014 16:02 -1,3 C -2,8 C 83 % 1029,9 hPa 0,0 l/m 0 min 0 min 23 W/m 10,5 km/h (2 Bft)
28.12.2014 16:04 -1,3 C -2,8 C 83 % 1029,9 hPa 0,0 l/m 0 min 0 min 21 W/m 8,4 km/h (2 Bft)
28.12.2014 16:06 -1,3 C -2,8 C 83 % 1029,9 hPa 0,0 l/m 0 min 0 min 21 W/m 10,5 km/h (2 Bft)
28.12.2014 16:08 -1,4 C -2,8 C 83 % 1030,0 hPa 0,0 l/m 2 min 0 min 20 W/m 10,5 km/h (2 Bft)
28.12.2014 16:10 -1,4 C -2,8 C 83 % 1030,0 hPa 0,0 l/m 2 min 0 min 19 W/m 8,4 km/h (2 Bft)
28.12.2014 16:12 -1,4 C -2,8 C 83 % 1030,0 hPa 0,0 l/m 2 min 0 min 18 W/m 10,5 km/h (2 Bft)
28.12.2014 16:14 -1,4 C -2,8 C 83 % 1029,9 hPa 0,0 l/m 2 min 0 min 17 W/m 8,4 km/h (2 Bft)
28.12.2014 16:16 -1,5 C -2,8 C 83 % 1029,9 hPa 0,0 l/m 2 min 0 min 16 W/m 10,5 km/h (2 Bft)
28.12.2014 16:18 -1,5 C -3,3 C 83 % 1030,0 hPa 0,0 l/m 2 min 0 min 15 W/m 6,3 km/h (2 Bft)
28.12.2014 16:20 -1,5 C -3,3 C 83 % 1030,0 hPa 0,0 l/m 0 min 0 min 14 W/m 6,3 km/h (2 Bft)
28.12.2014 16:22 -1,6 C -3,3 C 83 % 1030,0 hPa 0,0 l/m 0 min 0 min 12 W/m 4,2 km/h (1 Bft)
28.12.2014 16:24 -1,6 C -3,3 C 83 % 1030,0 hPa 0,0 l/m 0 min 0 min 12 W/m 6,3 km/h (2 Bft)
28.12.2014 16:26 -1,6 C -3,9 C 84 % 1030,0 hPa 0,0 l/m 0 min 0 min 11 W/m 6,3 km/h (2 Bft)
28.12.2014 16:28 -1,6 C -3,9 C 84 % 1030,1 hPa 0,0 l/m 0 min 0 min 11 W/m 6,3 km/h (2 Bft)
28.12.2014 16:30 -1,6 C -3,9 C 84 % 1030,2 hPa 0,0 l/m 0 min 0 min 9 W/m 4,2 km/h (1 Bft)
28.12.2014 16:32 -1,7 C -3,9 C 84 % 1030,2 hPa 0,0 l/m 0 min 0 min 8 W/m 4,2 km/h (1 Bft)
28.12.2014 16:34 -1,7 C -3,9 C 84 % 1030,2 hPa 0,0 l/m 0 min 0 min 7 W/m 2,1 km/h (1 Bft)
28.12.2014 16:36 -1,7 C -3,9 C 84 % 1030,2 hPa 0,0 l/m 0 min 0 min 7 W/m 2,1 km/h (1 Bft)
28.12.2014 16:38 -1,8 C -3,9 C 84 % 1030,2 hPa 0,0 l/m 0 min 0 min 5 W/m 4,2 km/h (1 Bft)
28.12.2014 16:40 -1,8 C -3,9 C 83 % 1030,2 hPa 0,0 l/m 0 min 0 min 5 W/m 4,2 km/h (1 Bft)
28.12.2014 16:42 -1,8 C -4,4 C 83 % 1030,2 hPa 0,0 l/m 0 min 0 min 5 W/m 2,1 km/h (1 Bft)
28.12.2014 16:44 -1,9 C -4,4 C 83 % 1030,2 hPa 0,0 l/m 0 min 0 min 3 W/m 0,0 km/h (0 Bft)
28.12.2014 16:46 -1,9 C -4,4 C 83 % 1030,3 hPa 0,0 l/m 0 min 0 min 0 W/m 2,1 km/h (1 Bft)
28.12.2014 16:48 -1,9 C -4,4 C 83 % 1030,4 hPa 0,0 l/m 0 min 0 min 0 W/m 4,2 km/h (1 Bft)
28.12.2014 16:50 -2,0 C -4,4 C 83 % 1030,4 hPa 0,0 l/m 0 min 0 min 0 W/m 2,1 km/h (1 Bft)
28.12.2014 16:52 -2,1 C -4,4 C 84 % 1030,4 hPa 0,0 l/m 0 min 0 min 0 W/m 4,2 km/h (1 Bft)
28.12.2014 16:54 -2,1 C -4,4 C 84 % 1030,4 hPa 0,0 l/m 0 min 0 min 0 W/m 4,2 km/h (1 Bft)
28.12.2014 16:56 -2,1 C -4,4 C 84 % 1030,5 hPa 0,0 l/m 0 min 0 min 0 W/m 4,2 km/h (1 Bft)
28.12.2014 16:58 -2,2 C -4,4 C 84 % 1030,5 hPa 0,0 l/m 0 min 0 min 0 W/m 4,2 km/h (1 Bft)
28.12.2014 17:00 -2,2 C -4,4 C 84 % 1030,5 hPa 0,0 l/m 0 min 0 min 0 W/m 2,1 km/h (1 Bft)
28.12.2014 17:02 -2,2 C -5,0 C 83 % 1030,5 hPa 0,0 l/m 0 min 0 min 0 W/m 2,1 km/h (1 Bft)
28.12.2014 17:04 -2,3 C -5,0 C 83 % 1030,5 hPa 0,0 l/m 0 min 0 min 0 W/m 2,1 km/h (1 Bft)
28.12.2014 17:06 -2,3 C -5,0 C 83 % 1030,5 hPa 0,0 l/m 0 min 0 min 0 W/m 2,1 km/h (1 Bft)
28.12.2014 17:08 -2,4 C -5,0 C 83 % 1030,5 hPa 0,0 l/m 0 min 0 min 0 W/m 2,1 km/h (1 Bft)
28.12.2014 17:10 -2,4 C -5,0 C 84 % 1030,6 hPa 0,0 l/m 0 min 0 min 0 W/m 4,2 km/h (1 Bft)
28.12.2014 17:12 -2,5 C -5,0 C 84 % 1030,5 hPa 0,0 l/m 0 min 0 min 0 W/m 4,2 km/h (1 Bft)
28.12.2014 17:14 -2,5 C -5,0 C 84 % 1030,6 hPa 0,0 l/m 0 min 0 min 0 W/m 4,2 km/h (1 Bft)
28.12.2014 17:16 -2,6 C -5,0 C 84 % 1030,7 hPa 0,0 l/m 0 min 0 min 0 W/m 2,1 km/h (1 Bft)
28.12.2014 17:18 -2,6 C -5,0 C 84 % 1030,7 hPa 0,0 l/m 0 min 0 min 0 W/m 4,2 km/h (1 Bft)
28.12.2014 17:20 -2,7 C -5,0 C 84 % 1030,7 hPa 0,0 l/m 0 min 0 min 0 W/m 4,2 km/h (1 Bft)
28.12.2014 17:22 -2,7 C -5,0 C 84 % 1030,8 hPa 0,0 l/m 0 min 0 min 0 W/m 4,2 km/h (1 Bft)
28.12.2014 17:24 -2,7 C -5,0 C 84 % 1030,8 hPa 0,0 l/m 0 min 0 min 0 W/m 4,2 km/h (1 Bft)
28.12.2014 17:26 -2,8 C -5,0 C 84 % 1030,8 hPa 0,0 l/m 0 min 0 min 0 W/m 4,2 km/h (1 Bft)
28.12.2014 17:28 -2,8 C -5,0 C 84 % 1030,9 hPa 0,0 l/m 0 min 0 min 0 W/m 4,2 km/h (1 Bft)
28.12.2014 17:30 -2,8 C -5,0 C 84 % 1030,9 hPa 0,0 l/m 0 min 0 min 0 W/m 4,2 km/h (1 Bft)
28.12.2014 17:32 -2,9 C -5,0 C 84 % 1030,9 hPa 0,0 l/m 0 min 0 min 0 W/m 2,1 km/h (1 Bft)
28.12.2014 17:34 -2,9 C -5,0 C 84 % 1030,9 hPa 0,0 l/m 0 min 0 min 0 W/m 4,2 km/h (1 Bft)
28.12.2014 17:36 -3,0 C -5,6 C 84 % 1031,0 hPa 0,0 l/m 0 min 0 min 0 W/m 4,2 km/h (1 Bft)
28.12.2014 17:38 -3,0 C -5,6 C 84 % 1031,0 hPa 0,0 l/m 0 min 0 min 0 W/m 4,2 km/h (1 Bft)
28.12.2014 17:40 -3,1 C -5,6 C 85 % 1031,1 hPa 0,0 l/m 0 min 0 min 0 W/m 6,3 km/h (2 Bft)
28.12.2014 17:42 -3,1 C -5,6 C 84 % 1031,1 hPa 0,0 l/m 0 min 0 min 0 W/m 4,2 km/h (1 Bft)
28.12.2014 17:44 -3,1 C -5,6 C 85 % 1031,1 hPa 0,0 l/m 0 min 0 min 0 W/m 4,2 km/h (1 Bft)
28.12.2014 17:46 -3,2 C -5,6 C 85 % 1031,2 hPa 0,0 l/m 0 min 0 min 0 W/m 4,2 km/h (1 Bft)
28.12.2014 17:48 -3,2 C -5,6 C 85 % 1031,3 hPa 0,0 l/m 0 min 0 min 0 W/m 6,3 km/h (2 Bft)
28.12.2014 17:50 -3,2 C -5,0 C 85 % 1031,3 hPa 0,0 l/m 0 min 0 min 0 W/m 8,4 km/h (2 Bft)
28.12.2014 17:52 -3,3 C -5,0 C 85 % 1031,4 hPa 0,0 l/m 0 min 0 min 0 W/m 8,4 km/h (2 Bft)
28.12.2014 17:54 -3,3 C -5,0 C 85 % 1031,4 hPa 0,0 l/m 0 min 0 min 0 W/m 8,4 km/h (2 Bft)
28.12.2014 17:56 -3,3 C -5,0 C 85 % 1031,4 hPa 0,0 l/m 0 min 0 min 0 W/m 6,3 km/h (2 Bft)
28.12.2014 17:58 -3,3 C -5,0 C 85 % 1031,5 hPa 0,0 l/m 0 min 0 min 0 W/m 8,4 km/h (2 Bft)
28.12.2014 18:00 -3,4 C -5,0 C 86 % 1031,4 hPa 0,0 l/m 0 min 0 min 0 W/m 4,2 km/h (1 Bft)
28.12.2014 18:02 -3,4 C -5,0 C 86 % 1031,5 hPa 0,0 l/m 0 min 0 min 0 W/m 6,3 km/h (2 Bft)
28.12.2014 18:06 -3,4 C -5,0 C 86 % 1031,7 hPa 0,0 l/m 0 min 0 min 0 W/m 6,3 km/h (2 Bft)
28.12.2014 18:08 -3,4 C -5,0 C 86 % 1031,7 hPa 0,0 l/m 0 min 0 min 0 W/m 6,3 km/h (2 Bft)
28.12.2014 18:10 -3,4 C -5,0 C 86 % 1031,8 hPa 0,0 l/m 0 min 0 min 0 W/m 8,4 km/h (2 Bft)
28.12.2014 18:12 -3,5 C -5,0 C 86 % 1031,9 hPa 0,0 l/m 0 min 0 min 0 W/m 6,3 km/h (2 Bft)
28.12.2014 18:14 -3,5 C -5,0 C 86 % 1032,0 hPa 0,0 l/m 0 min 0 min 0 W/m 10,5 km/h (2 Bft)
28.12.2014 18:16 -3,5 C -5,0 C 87 % 1032,0 hPa 0,0 l/m 0 min 0 min 0 W/m 8,4 km/h (2 Bft)
28.12.2014 18:18 -3,5 C -5,0 C 87 % 1032,0 hPa 0,0 l/m 0 min 0 min 0 W/m 8,4 km/h (2 Bft)
28.12.2014 18:20 -3,5 C -5,0 C 87 % 1032,1 hPa 0,0 l/m 0 min 0 min 0 W/m 6,3 km/h (2 Bft)
28.12.2014 18:22 -3,5 C -4,4 C 87 % 1032,1 hPa 0,0 l/m 0 min 0 min 0 W/m 6,3 km/h (2 Bft)
28.12.2014 18:24 -3,5 C -5,0 C 87 % 1032,1 hPa 0,0 l/m 0 min 0 min 0 W/m 8,4 km/h (2 Bft)
28.12.2014 18:26 -3,5 C -5,0 C 87 % 1032,2 hPa 0,0 l/m 0 min 0 min 0 W/m 8,4 km/h (2 Bft)
28.12.2014 18:28 -3,5 C -5,0 C 88 % 1032,3 hPa 0,0 l/m 0 min 0 min 0 W/m 6,3 km/h (2 Bft)
28.12.2014 18:30 -3,4 C -4,4 C 88 % 1032,4 hPa 0,0 l/m 0 min 0 min 0 W/m 6,3 km/h (2 Bft)
28.12.2014 18:32 -3,4 C -4,4 C 88 % 1032,4 hPa 0,0 l/m 0 min 0 min 0 W/m 8,4 km/h (2 Bft)
28.12.2014 18:34 -3,4 C -4,4 C 88 % 1032,5 hPa 0,0 l/m 0 min 0 min 0 W/m 8,4 km/h (2 Bft)
28.12.2014 18:36 -3,4 C -4,4 C 88 % 1032,5 hPa 0,0 l/m 0 min 0 min 0 W/m 10,5 km/h (2 Bft)
28.12.2014 18:38 -3,4 C -4,4 C 88 % 1032,5 hPa 0,0 l/m 0 min 0 min 0 W/m 10,5 km/h (2 Bft)
28.12.2014 18:40 -3,4 C -4,4 C 89 % 1032,6 hPa 0,0 l/m 0 min 0 min 0 W/m 8,4 km/h (2 Bft)
28.12.2014 18:42 -3,4 C -4,4 C 89 % 1032,6 hPa 0,0 l/m 0 min 0 min 0 W/m 8,4 km/h (2 Bft)
28.12.2014 18:44 -3,4 C -4,4 C 89 % 1032,5 hPa 0,0 l/m 0 min 0 min 0 W/m 6,3 km/h (2 Bft)
28.12.2014 18:46 -3,4 C -4,4 C 89 % 1032,6 hPa 0,0 l/m 0 min 0 min 0 W/m 6,3 km/h (2 Bft)
28.12.2014 18:48 -3,4 C -4,4 C 89 % 1032,6 hPa 0,0 l/m 0 min 0 min 0 W/m 6,3 km/h (2 Bft)
28.12.2014 18:50 -3,4 C -5,0 C 89 % 1032,7 hPa 0,0 l/m 0 min 0 min 0 W/m 6,3 km/h (2 Bft)
28.12.2014 18:52 -3,4 C -5,0 C 89 % 1032,7 hPa 0,0 l/m 0 min 0 min 0 W/m 4,2 km/h (1 Bft)
28.12.2014 18:54 -3,4 C -5,0 C 89 % 1032,6 hPa 0,0 l/m 0 min 0 min 0 W/m 2,1 km/h (1 Bft)
28.12.2014 18:56 -3,4 C -5,0 C 89 % 1032,7 hPa 0,0 l/m 0 min 0 min 0 W/m 2,1 km/h (1 Bft)
28.12.2014 18:58 -3,4 C -5,0 C 89 % 1032,7 hPa 0,0 l/m 0 min 0 min 0 W/m 2,1 km/h (1 Bft)
28.12.2014 19:00 -3,4 C -5,6 C 89 % 1032,7 hPa 0,0 l/m 0 min 0 min 0 W/m 2,1 km/h (1 Bft)
28.12.2014 19:02 -3,4 C -5,6 C 89 % 1032,7 hPa 0,0 l/m 0 min 0 min 0 W/m 2,1 km/h (1 Bft)
28.12.2014 19:04 -3,4 C -5,6 C 89 % 1032,7 hPa 0,0 l/m 0 min 0 min 0 W/m 2,1 km/h (1 Bft)
28.12.2014 19:06 -3,5 C -5,6 C 89 % 1032,7 hPa 0,0 l/m 0 min 0 min 0 W/m 2,1 km/h (1 Bft)
28.12.2014 19:08 -3,5 C -5,6 C 89 % 1032,7 hPa 0,0 l/m 0 min 0 min 0 W/m 0,0 km/h (0 Bft)
28.12.2014 19:10 -3,5 C -5,6 C 89 % 1032,7 hPa 0,0 l/m 0 min 0 min 0 W/m 0,0 km/h (0 Bft)
28.12.2014 19:12 -3,6 C -5,6 C 89 % 1032,7 hPa 0,0 l/m 0 min 0 min 0 W/m 2,1 km/h (1 Bft)
28.12.2014 19:14 -3,6 C -5,6 C 89 % 1032,7 hPa 0,0 l/m 0 min 0 min 0 W/m 2,1 km/h (1 Bft)
28.12.2014 19:16 -3,6 C -5,6 C 89 % 1032,8 hPa 0,0 l/m 0 min 0 min 0 W/m 4,2 km/h (1 Bft)
28.12.2014 19:18 -3,6 C -5,6 C 89 % 1032,9 hPa 0,0 l/m 0 min 0 min 0 W/m 4,2 km/h (1 Bft)
28.12.2014 19:20 -3,6 C -5,6 C 89 % 1033,0 hPa 0,0 l/m 0 min 0 min 0 W/m 4,2 km/h (1 Bft)
28.12.2014 19:22 -3,7 C -5,6 C 89 % 1033,0 hPa 0,0 l/m 0 min 0 min 0 W/m 4,2 km/h (1 Bft)
28.12.2014 19:24 -3,7 C -6,1 C 89 % 1033,2 hPa 0,0 l/m 0 min 0 min 0 W/m 6,3 km/h (2 Bft)
28.12.2014 19:26 -3,7 C -6,1 C 89 % 1033,2 hPa 0,0 l/m 0 min 0 min 0 W/m 6,3 km/h (2 Bft)
28.12.2014 19:28 -3,8 C -6,1 C 89 % 1033,2 hPa 0,0 l/m 0 min 0 min 0 W/m 6,3 km/h (2 Bft)
28.12.2014 19:30 -3,8 C -6,1 C 89 % 1033,2 hPa 0,0 l/m 0 min 0 min 0 W/m 4,2 km/h (1 Bft)
28.12.2014 19:32 -3,8 C -6,1 C 89 % 1033,2 hPa 0,0 l/m 0 min 0 min 0 W/m 2,1 km/h (1 Bft)
28.12.2014 19:34 -3,9 C -6,1 C 89 % 1033,3 hPa 0,0 l/m 0 min 0 min 0 W/m 2,1 km/h (1 Bft)
28.12.2014 19:36 -3,9 C -6,1 C 89 % 1033,3 hPa 0,0 l/m 0 min 0 min 0 W/m 2,1 km/h (1 Bft)
28.12.2014 19:38 -3,9 C -6,1 C 89 % 1033,3 hPa 0,0 l/m 0 min 0 min 0 W/m 2,1 km/h (1 Bft)
28.12.2014 19:40 -3,9 C -6,1 C 89 % 1033,3 hPa 0,0 l/m 0 min 0 min 0 W/m 2,1 km/h (1 Bft)
28.12.2014 19:42 -4,0 C -6,1 C 89 % 1033,3 hPa 0,0 l/m 0 min 0 min 0 W/m 2,1 km/h (1 Bft)
28.12.2014 19:44 -4,0 C -6,1 C 89 % 1033,3 hPa 0,0 l/m 0 min 0 min 0 W/m 2,1 km/h (1 Bft)
28.12.2014 19:46 -4,1 C -6,1 C 89 % 1033,3 hPa 0,0 l/m 0 min 0 min 0 W/m 2,1 km/h (1 Bft)
28.12.2014 19:48 -4,1 C -6,1 C 89 % 1033,4 hPa 0,0 l/m 0 min 0 min 0 W/m 4,2 km/h (1 Bft)
28.12.2014 19:50 -4,1 C -6,1 C 89 % 1033,4 hPa 0,0 l/m 0 min 0 min 0 W/m 4,2 km/h (1 Bft)
28.12.2014 19:52 -4,2 C -5,6 C 89 % 1033,4 hPa 0,0 l/m 0 min 0 min 0 W/m 4,2 km/h (1 Bft)
28.12.2014 19:54 -4,2 C -5,6 C 89 % 1033,5 hPa 0,0 l/m 0 min 0 min 0 W/m 4,2 km/h (1 Bft)
28.12.2014 19:56 -4,2 C -5,6 C 89 % 1033,4 hPa 0,0 l/m 0 min 0 min 0 W/m 4,2 km/h (1 Bft)
28.12.2014 19:58 -4,3 C -5,6 C 89 % 1033,5 hPa 0,0 l/m 0 min 0 min 0 W/m 2,1 km/h (1 Bft)
28.12.2014 20:00 -4,3 C -5,6 C 89 % 1033,4 hPa 0,0 l/m 0 min 0 min 0 W/m 2,1 km/h (1 Bft)
28.12.2014 20:02 -4,3 C -5,6 C 89 % 1033,4 hPa 0,0 l/m 0 min 0 min 0 W/m 4,2 km/h (1 Bft)
28.12.2014 20:04 -4,3 C -5,6 C 89 % 1033,4 hPa 0,0 l/m 0 min 0 min 0 W/m 4,2 km/h (1 Bft)
28.12.2014 20:06 -4,3 C -5,6 C 89 % 1033,5 hPa 0,0 l/m 0 min 0 min 0 W/m 2,1 km/h (1 Bft)
28.12.2014 20:08 -4,3 C -5,6 C 89 % 1033,4 hPa 0,0 l/m 0 min 0 min 0 W/m 4,2 km/h (1 Bft)
28.12.2014 20:10 -4,3 C -5,6 C 89 % 1033,4 hPa 0,0 l/m 0 min 0 min 0 W/m 6,3 km/h (2 Bft)
28.12.2014 20:12 -4,4 C -5,6 C 89 % 1033,4 hPa 0,0 l/m 0 min 0 min 0 W/m 6,3 km/h (2 Bft)
28.12.2014 20:14 -4,4 C -5,0 C 89 % 1033,4 hPa 0,0 l/m 0 min 0 min 0 W/m 6,3 km/h (2 Bft)
28.12.2014 20:16 -4,4 C -5,0 C 90 % 1033,3 hPa 0,0 l/m 0 min 0 min 0 W/m 6,3 km/h (2 Bft)
28.12.2014 20:18 -4,4 C -5,6 C 90 % 1033,4 hPa 0,0 l/m 0 min 0 min 0 W/m 4,2 km/h (1 Bft)
28.12.2014 20:20 -4,4 C -5,6 C 90 % 1033,3 hPa 0,0 l/m 0 min 0 min 0 W/m 4,2 km/h (1 Bft)
28.12.2014 20:22 -4,4 C -5,6 C 90 % 1033,3 hPa 0,0 l/m 0 min 0 min 0 W/m 6,3 km/h (2 Bft)
28.12.2014 20:24 -4,4 C -5,6 C 90 % 1033,4 hPa 0,0 l/m 0 min 0 min 0 W/m 4,2 km/h (1 Bft)
28.12.2014 20:26 -4,4 C -5,6 C 90 % 1033,5 hPa 0,0 l/m 0 min 0 min 0 W/m 6,3 km/h (2 Bft)
28.12.2014 20:28 -4,4 C -5,6 C 90 % 1033,6 hPa 0,0 l/m 0 min 0 min 0 W/m 4,2 km/h (1 Bft)
28.12.2014 20:30 -4,4 C -5,6 C 90 % 1033,6 hPa 0,0 l/m 0 min 0 min 0 W/m 2,1 km/h (1 Bft)
28.12.2014 20:32 -4,4 C -5,6 C 90 % 1033,6 hPa 0,0 l/m 0 min 0 min 0 W/m 4,2 km/h (1 Bft)
28.12.2014 20:34 -4,3 C -5,6 C 90 % 1033,6 hPa 0,0 l/m 0 min 0 min 0 W/m 2,1 km/h (1 Bft)
28.12.2014 20:36 -4,4 C -5,6 C 90 % 1033,6 hPa 0,0 l/m 0 min 0 min 0 W/m 6,3 km/h (2 Bft)
28.12.2014 20:38 -4,4 C -5,6 C 90 % 1033,6 hPa 0,0 l/m 0 min 0 min 0 W/m 4,2 km/h (1 Bft)
28.12.2014 20:40 -4,4 C -5,6 C 90 % 1033,6 hPa 0,0 l/m 0 min 0 min 0 W/m 4,2 km/h (1 Bft)
28.12.2014 20:42 -4,4 C -5,6 C 90 % 1033,6 hPa 0,0 l/m 0 min 0 min 0 W/m 4,2 km/h (1 Bft)
28.12.2014 20:44 -4,4 C -5,6 C 90 % 1033,6 hPa 0,0 l/m 0 min 0 min 0 W/m 4,2 km/h (1 Bft)
28.12.2014 20:46 -4,4 C -5,6 C 90 % 1033,6 hPa 0,0 l/m 0 min 0 min 0 W/m 4,2 km/h (1 Bft)
28.12.2014 20:48 -4,4 C -5,6 C 90 % 1033,6 hPa 0,0 l/m 0 min 0 min 0 W/m 4,2 km/h (1 Bft)
28.12.2014 20:50 -4,4 C -5,0 C 90 % 1033,6 hPa 0,0 l/m 0 min 0 min 0 W/m 10,5 km/h (2 Bft)
28.12.2014 20:52 -4,4 C -5,0 C 90 % 1033,6 hPa 0,0 l/m 0 min 0 min 0 W/m 8,4 km/h (2 Bft)
28.12.2014 20:54 -4,4 C -5,0 C 90 % 1033,5 hPa 0,0 l/m 0 min 0 min 0 W/m 8,4 km/h (2 Bft)
28.12.2014 20:56 -4,4 C -5,0 C 90 % 1033,5 hPa 0,0 l/m 0 min 0 min 0 W/m 6,3 km/h (2 Bft)
28.12.2014 20:58 -4,4 C -5,0 C 90 % 1033,5 hPa 0,0 l/m 0 min 0 min 0 W/m 6,3 km/h (2 Bft)
28.12.2014 21:00 -4,4 C -5,0 C 91 % 1033,6 hPa 0,0 l/m 0 min 0 min 0 W/m 6,3 km/h (2 Bft)
28.12.2014 21:02 -4,4 C -5,0 C 91 % 1033,6 hPa 0,0 l/m 0 min 0 min 0 W/m 6,3 km/h (2 Bft)
28.12.2014 21:04 -4,4 C -5,0 C 91 % 1033,5 hPa 0,0 l/m 0 min 0 min 0 W/m 6,3 km/h (2 Bft)
28.12.2014 21:06 -4,4 C -5,0 C 91 % 1033,5 hPa 0,0 l/m 0 min 0 min 0 W/m 6,3 km/h (2 Bft)
28.12.2014 21:08 -4,4 C -5,0 C 91 % 1033,6 hPa 0,0 l/m 0 min 0 min 0 W/m 10,5 km/h (2 Bft)
28.12.2014 21:10 -4,4 C -5,0 C 91 % 1033,6 hPa 0,0 l/m 0 min 0 min 0 W/m 8,4 km/h (2 Bft)
28.12.2014 21:12 -4,4 C -5,0 C 91 % 1033,6 hPa 0,0 l/m 0 min 0 min 0 W/m 6,3 km/h (2 Bft)
28.12.2014 21:14 -4,4 C -5,0 C 91 % 1033,6 hPa 0,0 l/m 0 min 0 min 0 W/m 8,4 km/h (2 Bft)
28.12.2014 21:16 -4,4 C -5,0 C 91 % 1033,6 hPa 0,0 l/m 0 min 0 min 0 W/m 10,5 km/h (2 Bft)
28.12.2014 21:18 -4,3 C -5,0 C 91 % 1033,5 hPa 0,0 l/m 0 min 0 min 0 W/m 8,4 km/h (2 Bft)
28.12.2014 21:20 -4,3 C -5,0 C 91 % 1033,6 hPa 0,0 l/m 0 min 0 min 0 W/m 10,5 km/h (2 Bft)
28.12.2014 21:22 -4,3 C -5,0 C 91 % 1033,6 hPa 0,0 l/m 0 min 0 min 0 W/m 6,3 km/h (2 Bft)
28.12.2014 21:24 -4,3 C -4,4 C 91 % 1033,6 hPa 0,0 l/m 0 min 0 min 0 W/m 12,6 km/h (3 Bft)
28.12.2014 21:26 -4,3 C -4,4 C 91 % 1033,7 hPa 0,0 l/m 0 min 0 min 0 W/m 6,3 km/h (2 Bft)
28.12.2014 21:28 -4,3 C -4,4 C 91 % 1033,8 hPa 0,0 l/m 0 min 0 min 0 W/m 8,4 km/h (2 Bft)
28.12.2014 21:30 -4,2 C -4,4 C 91 % 1033,8 hPa 0,0 l/m 0 min 0 min 0 W/m 4,2 km/h (1 Bft)
28.12.2014 21:32 -4,2 C -4,4 C 91 % 1033,7 hPa 0,0 l/m 0 min 0 min 0 W/m 10,5 km/h (2 Bft)
28.12.2014 21:34 -4,2 C -4,4 C 91 % 1033,7 hPa 0,0 l/m 0 min 0 min 0 W/m 8,4 km/h (2 Bft)
28.12.2014 21:36 -4,2 C -4,4 C 91 % 1033,7 hPa 0,0 l/m 0 min 0 min 0 W/m 6,3 km/h (2 Bft)
28.12.2014 21:38 -4,2 C -5,0 C 91 % 1033,7 hPa 0,0 l/m 0 min 0 min 0 W/m 8,4 km/h (2 Bft)
28.12.2014 21:40 -4,2 C -5,0 C 91 % 1033,7 hPa 0,0 l/m 0 min 0 min 0 W/m 8,4 km/h (2 Bft)
28.12.2014 21:42 -4,1 C -4,4 C 92 % 1033,7 hPa 0,0 l/m 0 min 0 min 0 W/m 8,4 km/h (2 Bft)
28.12.2014 21:44 -4,1 C -4,4 C 92 % 1033,7 hPa 0,0 l/m 0 min 0 min 0 W/m 6,3 km/h (2 Bft)
28.12.2014 21:46 -4,1 C -4,4 C 92 % 1033,8 hPa 0,0 l/m 0 min 0 min 0 W/m 8,4 km/h (2 Bft)
28.12.2014 21:48 -4,1 C -4,4 C 92 % 1033,7 hPa 0,0 l/m 0 min 0 min 0 W/m 8,4 km/h (2 Bft)
28.12.2014 21:50 -4,1 C -4,4 C 92 % 1033,7 hPa 0,0 l/m 0 min 0 min 0 W/m 4,2 km/h (1 Bft)
28.12.2014 21:52 -4,1 C -4,4 C 92 % 1033,8 hPa 0,0 l/m 0 min 0 min 0 W/m 10,5 km/h (2 Bft)
28.12.2014 21:54 -4,1 C -4,4 C 92 % 1033,7 hPa 0,0 l/m 0 min 0 min 0 W/m 6,3 km/h (2 Bft)
28.12.2014 21:56 -4,1 C -4,4 C 92 % 1033,7 hPa 0,0 l/m 0 min 0 min 0 W/m 6,3 km/h (2 Bft)
28.12.2014 21:58 -4,1 C -4,4 C 92 % 1033,8 hPa 0,0 l/m 0 min 0 min 0 W/m 8,4 km/h (2 Bft)
28.12.2014 22:00 -4,1 C -4,4 C 92 % 1033,7 hPa 0,0 l/m 0 min 0 min 0 W/m 8,4 km/h (2 Bft)
28.12.2014 22:02 -4,0 C -4,4 C 92 % 1033,7 hPa 0,0 l/m 0 min 0 min 0 W/m 10,5 km/h (2 Bft)
28.12.2014 22:04 -4,0 C -4,4 C 92 % 1033,7 hPa 0,0 l/m 0 min 0 min 0 W/m 10,5 km/h (2 Bft)
28.12.2014 22:06 -3,9 C -4,4 C 92 % 1033,6 hPa 0,0 l/m 0 min 0 min 0 W/m 6,3 km/h (2 Bft)
28.12.2014 22:08 -3,9 C -4,4 C 92 % 1033,6 hPa 0,0 l/m 0 min 0 min 0 W/m 8,4 km/h (2 Bft)
28.12.2014 22:10 -3,9 C -4,4 C 92 % 1033,6 hPa 0,0 l/m 0 min 0 min 0 W/m 6,3 km/h (2 Bft)
28.12.2014 22:12 -3,9 C -5,0 C 92 % 1033,6 hPa 0,0 l/m 0 min 0 min 0 W/m 4,2 km/h (1 Bft)
28.12.2014 22:14 -3,9 C -5,0 C 92 % 1033,6 hPa 0,0 l/m 0 min 0 min 0 W/m 4,2 km/h (1 Bft)
28.12.2014 22:16 -3,9 C -5,0 C 92 % 1033,6 hPa 0,0 l/m 0 min 0 min 0 W/m 4,2 km/h (1 Bft)
28.12.2014 22:18 -3,9 C -5,0 C 92 % 1033,6 hPa 0,0 l/m 0 min 0 min 0 W/m 6,3 km/h (2 Bft)
28.12.2014 22:20 -3,9 C -5,0 C 92 % 1033,6 hPa 0,0 l/m 0 min 0 min 0 W/m 6,3 km/h (2 Bft)
28.12.2014 22:22 -3,9 C -5,0 C 92 % 1033,6 hPa 0,0 l/m 0 min 0 min 0 W/m 6,3 km/h (2 Bft)
28.12.2014 22:24 -3,9 C -4,4 C 92 % 1033,7 hPa 0,0 l/m 0 min 0 min 0 W/m 6,3 km/h (2 Bft)
28.12.2014 22:26 -3,9 C -4,4 C 92 % 1033,6 hPa 0,0 l/m 0 min 0 min 0 W/m 6,3 km/h (2 Bft)
28.12.2014 22:28 -3,9 C -4,4 C 92 % 1033,6 hPa 0,0 l/m 0 min 0 min 0 W/m 8,4 km/h (2 Bft)
28.12.2014 22:30 -3,9 C -4,4 C 92 % 1033,7 hPa 0,0 l/m 0 min 0 min 0 W/m 8,4 km/h (2 Bft)
28.12.2014 22:32 -3,9 C -4,4 C 93 % 1033,7 hPa 0,0 l/m 0 min 0 min 0 W/m 8,4 km/h (2 Bft)
28.12.2014 22:34 -3,9 C -4,4 C 93 % 1033,6 hPa 0,0 l/m 0 min 0 min 0 W/m 8,4 km/h (2 Bft)
28.12.2014 22:36 -3,9 C -4,4 C 93 % 1033,7 hPa 0,0 l/m 0 min 0 min 0 W/m 10,5 km/h (2 Bft)
28.12.2014 22:38 -3,8 C -3,9 C 93 % 1033,6 hPa 0,0 l/m 0 min 0 min 0 W/m 10,5 km/h (2 Bft)
28.12.2014 22:40 -3,8 C -3,9 C 93 % 1033,5 hPa 0,0 l/m 0 min 0 min 0 W/m 12,6 km/h (3 Bft)
28.12.2014 22:42 -3,8 C -3,9 C 93 % 1033,6 hPa 0,0 l/m 0 min 0 min 0 W/m 10,5 km/h (2 Bft)
28.12.2014 22:44 -3,8 C -3,9 C 93 % 1033,5 hPa 0,0 l/m 0 min 0 min 0 W/m 10,5 km/h (2 Bft)
28.12.2014 22:46 -3,8 C -3,9 C 93 % 1033,5 hPa 0,0 l/m 0 min 0 min 0 W/m 10,5 km/h (2 Bft)
28.12.2014 22:48 -3,7 C -3,9 C 93 % 1033,5 hPa 0,0 l/m 0 min 0 min 0 W/m 12,6 km/h (3 Bft)
28.12.2014 22:50 -3,7 C -3,9 C 93 % 1033,4 hPa 0,0 l/m 0 min 0 min 0 W/m 12,6 km/h (3 Bft)
28.12.2014 22:52 -3,7 C -3,9 C 93 % 1033,5 hPa 0,0 l/m 0 min 0 min 0 W/m 10,5 km/h (2 Bft)
28.12.2014 22:54 -3,6 C -3,9 C 93 % 1033,5 hPa 0,0 l/m 0 min 0 min 0 W/m 14,6 km/h (3 Bft)
28.12.2014 22:56 -3,6 C -3,9 C 93 % 1033,6 hPa 0,0 l/m 0 min 0 min 0 W/m 12,6 km/h (3 Bft)
28.12.2014 22:58 -3,5 C -3,9 C 93 % 1033,7 hPa 0,0 l/m 0 min 0 min 0 W/m 6,3 km/h (2 Bft)
28.12.2014 23:00 -3,5 C -3,9 C 93 % 1033,6 hPa 0,0 l/m 0 min 0 min 0 W/m 8,4 km/h (2 Bft)
28.12.2014 23:02 -3,5 C -3,9 C 93 % 1033,6 hPa 0,0 l/m 0 min 0 min 0 W/m 6,3 km/h (2 Bft)
28.12.2014 23:04 -3,4 C -3,9 C 93 % 1033,6 hPa 0,0 l/m 0 min 0 min 0 W/m 6,3 km/h (2 Bft)
28.12.2014 23:06 -3,4 C -3,9 C 93 % 1033,5 hPa 0,0 l/m 0 min 0 min 0 W/m 8,4 km/h (2 Bft)
28.12.2014 23:08 -3,4 C -3,9 C 93 % 1033,5 hPa 0,0 l/m 0 min 0 min 0 W/m 8,4 km/h (2 Bft)
28.12.2014 23:10 -3,4 C -3,9 C 93 % 1033,6 hPa 0,0 l/m 0 min 0 min 0 W/m 10,5 km/h (2 Bft)
28.12.2014 23:12 -3,4 C -3,9 C 93 % 1033,5 hPa 0,0 l/m 0 min 0 min 0 W/m 8,4 km/h (2 Bft)
28.12.2014 23:14 -3,4 C -3,9 C 93 % 1033,6 hPa 0,0 l/m 0 min 0 min 0 W/m 8,4 km/h (2 Bft)
28.12.2014 23:16 -3,4 C -3,9 C 93 % 1033,5 hPa 0,0 l/m 0 min 0 min 0 W/m 10,5 km/h (2 Bft)
28.12.2014 23:18 -3,4 C -3,9 C 93 % 1033,5 hPa 0,0 l/m 0 min 0 min 0 W/m 8,4 km/h (2 Bft)
28.12.2014 23:20 -3,4 C -3,9 C 93 % 1033,5 hPa 0,0 l/m 0 min 0 min 0 W/m 10,5 km/h (2 Bft)
28.12.2014 23:22 -3,3 C -3,9 C 93 % 1033,5 hPa 0,0 l/m 0 min 0 min 0 W/m 8,4 km/h (2 Bft)
28.12.2014 23:24 -3,3 C -3,9 C 93 % 1033,6 hPa 0,0 l/m 0 min 0 min 0 W/m 12,6 km/h (3 Bft)
28.12.2014 23:26 -3,3 C -3,9 C 93 % 1033,5 hPa 0,0 l/m 0 min 0 min 0 W/m 10,5 km/h (2 Bft)
28.12.2014 23:28 -3,3 C -3,9 C 93 % 1033,5 hPa 0,0 l/m 0 min 0 min 0 W/m 10,5 km/h (2 Bft)
28.12.2014 23:30 -3,3 C -3,9 C 93 % 1033,4 hPa 0,0 l/m 0 min 0 min 0 W/m 8,4 km/h (2 Bft)
28.12.2014 23:32 -3,3 C -3,9 C 93 % 1033,4 hPa 0,0 l/m 0 min 0 min 0 W/m 8,4 km/h (2 Bft)
28.12.2014 23:34 -3,3 C -3,9 C 93 % 1033,4 hPa 0,0 l/m 0 min 0 min 0 W/m 8,4 km/h (2 Bft)
28.12.2014 23:36 -3,3 C -3,9 C 93 % 1033,4 hPa 0,0 l/m 0 min 0 min 0 W/m 12,6 km/h (3 Bft)
28.12.2014 23:38 -3,3 C -3,9 C 93 % 1033,4 hPa 0,0 l/m 0 min 0 min 0 W/m 12,6 km/h (3 Bft)
28.12.2014 23:40 -3,3 C -3,9 C 93 % 1033,4 hPa 0,0 l/m 0 min 0 min 0 W/m 12,6 km/h (3 Bft)
28.12.2014 23:42 -3,3 C -3,9 C 93 % 1033,4 hPa 0,0 l/m 0 min 0 min 0 W/m 14,6 km/h (3 Bft)
28.12.2014 23:44 -3,3 C -3,9 C 93 % 1033,4 hPa 0,0 l/m 0 min 0 min 0 W/m 12,6 km/h (3 Bft)
28.12.2014 23:46 -3,3 C -3,9 C 93 % 1033,3 hPa 0,0 l/m 0 min 0 min 0 W/m 12,6 km/h (3 Bft)
28.12.2014 23:48 -3,3 C -3,9 C 93 % 1033,2 hPa 0,0 l/m 0 min 0 min 0 W/m 14,6 km/h (3 Bft)
28.12.2014 23:50 -3,3 C -3,9 C 93 % 1033,3 hPa 0,0 l/m 0 min 0 min 0 W/m 10,5 km/h (2 Bft)
28.12.2014 23:52 -3,3 C -3,9 C 93 % 1033,3 hPa 0,0 l/m 0 min 0 min 0 W/m 14,6 km/h (3 Bft)
28.12.2014 23:54 -3,2 C -3,9 C 93 % 1033,3 hPa 0,0 l/m 0 min 0 min 0 W/m 14,6 km/h (3 Bft)
28.12.2014 23:56 -3,2 C -3,9 C 93 % 1033,3 hPa 0,0 l/m 0 min 0 min 0 W/m 14,6 km/h (3 Bft)
28.12.2014 23:58 -3,2 C -3,9 C 93 % 1033,4 hPa 0,0 l/m 0 min 0 min 0 W/m 12,6 km/h (3 Bft)
_ Min-Zeit 08:50 19:24 13:12 00:00 - - - - 16:44
Minimum _ -4,5 C -6,1 C 70 % 1007,0 hPa - - - - 0,0 km/h (0 Bft)
_ Max-Zeit 00:00 00:00 22:32 21:28 13:12 08:56 00:00 12:24 00:20
Maximum _ -0,8 C -2,2 C 93 % 1033,8 hPa 0,2 l/m 2 min 0 min 244 W/m 50,2 km/h
O-NO (7 Bft)
Durchschnitt _ -3,0 C -4,0 C 83 % 1023,9 hPa #0,4 l/m #5:50 h #0 min. 128 W/m 19,3 km/h (3 Bft)
© 2015 W. Hausmann